Observation data for Sweetwater on 02/23/2019      Previous  Date  Next       Current Mesonet Observations  Soil Data  Daily Summary Page  Observations in Plain Language
KSW1 230600Z 14025G32KT 12/11 A2968 RMK A01 T01170107  RH  094%=      5-min Rain = 0
KSW1 230601Z 14026G34KT 12/11 A2968 RMK A01 T01160107  RH  094%=      5-min Rain = 0
KSW1 230602Z 14027KT 12/11 A2968 RMK A01 T01170107  RH  094%=      5-min Rain = 0
KSW1 230603Z 15026KT 12/11 A2969 RMK A01 T01160107  RH  094%=      5-min Rain = 0
KSW1 230604Z 14025G32KT 12/11 A2968 RMK A01 T01160107  RH  094%=      5-min Rain = 0
KSW1 230605Z 15022G30KT 12/11 A2968 RMK A01 T01160107  RH  094%=      5-min Rain = 0
KSW1 230606Z 14026G33KT 12/11 A2968 RMK A01 T01160106  RH  094%=      5-min Rain = 0
KSW1 230607Z 14026G34KT 12/11 A2968 RMK A01 T01150106  RH  094%=      5-min Rain = 0
KSW1 230608Z 14022G30KT 12/11 A2968 RMK A01 T01160106  RH  093%=      5-min Rain = 0
KSW1 230609Z 14024G31KT 12/11 A2969 RMK A01 T01150105  RH  093%=      5-min Rain = 0
KSW1 230610Z 14023G30KT 12/11 A2968 RMK A01 T01150105  RH  093%=      5-min Rain = 0
KSW1 230611Z 15024KT 12/11 A2968 RMK A01 T01150105  RH  093%=      5-min Rain = 0
KSW1 230612Z 15024KT 12/11 A2969 RMK A01 T01150105  RH  093%=      5-min Rain = 0
KSW1 230613Z 14023G28KT 12/11 A2969 RMK A01 T01150105  RH  093%=      5-min Rain = 0
KSW1 230614Z 14027G34KT 12/10 A2969 RMK A01 T01150104  RH  093%=      5-min Rain = 0
KSW1 230615Z 14024G33KT 12/10 A2969 RMK A01 T01150104  RH  093%=      5-min Rain = 0
KSW1 230616Z 15021G26KT 12/10 A2969 RMK A01 T01150104  RH  093%=      5-min Rain = 0
KSW1 230617Z 15023G28KT 12/10 A2969 RMK A01 T01150103  RH  093%=      5-min Rain = 0
KSW1 230618Z 15023G29KT 12/10 A297 RMK A01 T01150103  RH  092%=      5-min Rain = 0
KSW1 230619Z 15023G32KT 12/10 A297 RMK A01 T01150103  RH  092%=      5-min Rain = 0
KSW1 230620Z 15017KT 12/10 A297 RMK A01 T01150102  RH  092%=      5-min Rain = 0
KSW1 230621Z 15020G26KT 12/10 A297 RMK A01 T01150103  RH  092%=      5-min Rain = 0
KSW1 230622Z 16018G24KT 12/10 A297 RMK A01 T01150103  RH  093%=      5-min Rain = 0
KSW1 230623Z 15023G31KT 12/10 A297 RMK A01 T01150103  RH  093%=      5-min Rain = 0
KSW1 230624Z 16027G32KT 12/10 A297 RMK A01 T01150102  RH  092%=      5-min Rain = 0
KSW1 230625Z 16023G29KT 12/10 A297 RMK A01 T01150101  RH  091%=      5-min Rain = 0
KSW1 230626Z 16021G27KT 12/10 A2971 RMK A01 T01160102  RH  091%=      5-min Rain = 0
KSW1 230627Z 16022G27KT 12/10 A2971 RMK A01 T01150102  RH  091%=      5-min Rain = 0
KSW1 230628Z 16022KT 12/10 A2971 RMK A01 T01160102  RH  091%=      5-min Rain = 0
KSW1 230629Z 16017G22KT 12/10 A2971 RMK A01 T01150102  RH  092%=      5-min Rain = 0
KSW1 230630Z 16022KT 12/10 A2971 RMK A01 T01150102  RH  091%=      5-min Rain = 0
KSW1 230631Z 16017G23KT 12/10 A2971 RMK A01 T01150101  RH  091%=      5-min Rain = 0
KSW1 230632Z 16022G30KT 12/10 A2971 RMK A01 T01150101  RH  091%=      5-min Rain = 0
KSW1 230633Z 16021KT 12/10 A2971 RMK A01 T01150101  RH  091%=      5-min Rain = 0
KSW1 230634Z 16021KT 12/10 A2971 RMK A01 T01150101  RH  091%=      5-min Rain = 0
KSW1 230635Z 16019KT 12/10 A2971 RMK A01 T01150101  RH  091%=      5-min Rain = 0
KSW1 230636Z 16023KT 12/10 A2971 RMK A01 T01150101  RH  091%=      5-min Rain = 0
KSW1 230637Z 15022G27KT 12/10 A2971 RMK A01 T01150102  RH  091%=      5-min Rain = 0
KSW1 230638Z 16019G24KT 12/10 A2972 RMK A01 T01150101  RH  091%=      5-min Rain = 0
KSW1 230639Z 16019KT 12/10 A2972 RMK A01 T01150102  RH  091%=      5-min Rain = 0
KSW1 230640Z 16019G24KT 12/10 A2972 RMK A01 T01150101  RH  091%=      5-min Rain = 0
KSW1 230641Z 16021G26KT 12/10 A2972 RMK A01 T01150102  RH  092%=      5-min Rain = 0
KSW1 230642Z 16021G27KT 12/10 A2972 RMK A01 T01150101  RH  092%=      5-min Rain = 0
KSW1 230643Z 16022KT 12/10 A2973 RMK A01 T01150102  RH  092%=      5-min Rain = 0
KSW1 230644Z 16020KT 12/10 A2973 RMK A01 T01150102  RH  092%=      5-min Rain = 0
KSW1 230645Z 16023G30KT 12/10 A2973 RMK A01 T01160102  RH  092%=      5-min Rain = 0
KSW1 230646Z 16024KT 12/10 A2973 RMK A01 T01160103  RH  092%=      5-min Rain = 0
KSW1 230647Z 16020G25KT 12/10 A2972 RMK A01 T01160103  RH  091%=      5-min Rain = 0
KSW1 230648Z 15023KT 12/10 A2972 RMK A01 T01170103  RH  091%=      5-min Rain = 0
KSW1 230649Z 16027G32KT 12/10 A2972 RMK A01 T01170103  RH  091%=      5-min Rain = 0
KSW1 230650Z 16025G31KT 12/10 A2972 RMK A01 T01170104  RH  092%=      5-min Rain = 0
KSW1 230651Z 16022KT 12/10 A2973 RMK A01 T01170104  RH  092%=      5-min Rain = 0
KSW1 230652Z 16024G30KT 12/10 A2973 RMK A01 T01170104  RH  092%=      5-min Rain = 0
KSW1 230653Z 16025KT 12/11 A2973 RMK A01 T01180105  RH  092%=      5-min Rain = 0
KSW1 230654Z 16027G35KT 12/11 A2973 RMK A01 T01190105  RH  091%=      5-min Rain = 0
KSW1 230655Z 16024G29KT 12/11 A2973 RMK A01 T01190105  RH  091%=      5-min Rain = 0
KSW1 230656Z 16023G28KT 12/11 A2973 RMK A01 T01200105  RH  090%=      5-min Rain = 0
KSW1 230657Z 16023KT 12/11 A2973 RMK A01 T01200105  RH  090%=      5-min Rain = 0
KSW1 230658Z 16022G27KT 12/11 A2973 RMK A01 T01200105  RH  090%=      5-min Rain = 0
KSW1 230659Z 16021KT 12/11 A2974 RMK A01 T01200105  RH  091%=      5-min Rain = 0
KSW1 230700Z 17021G28KT 12/11 A2974 RMK A01 T01200105  RH  091%=      5-min Rain = 0
KSW1 230701Z 17024KT 12/11 A2974 RMK A01 T01210106  RH  091%=      5-min Rain = 0
KSW1 230702Z 16022G27KT 12/11 A2974 RMK A01 T01210106  RH  091%=      5-min Rain = 0
KSW1 230703Z 16020G25KT 12/11 A2974 RMK A01 T01210106  RH  090%=      5-min Rain = 0
KSW1 230704Z 16017KT 12/11 A2974 RMK A01 T01220106  RH  090%=      5-min Rain = 0
KSW1 230705Z 16022G33KT 12/11 A2974 RMK A01 T01220106  RH  090%=      5-min Rain = 0
KSW1 230706Z 17025G33KT 12/11 A2974 RMK A01 T01220106  RH  090%=      5-min Rain = 0
KSW1 230707Z 16026G31KT 12/11 A2974 RMK A01 T01230106  RH  090%=      5-min Rain = 0
KSW1 230708Z 16024G31KT 12/11 A2974 RMK A01 T01230106  RH  089%=      5-min Rain = 0
KSW1 230709Z 16024G31KT 12/11 A2974 RMK A01 T01240107  RH  089%=      5-min Rain = 0
KSW1 230710Z 16020KT 12/11 A2974 RMK A01 T01240107  RH  089%=      5-min Rain = 0
KSW1 230711Z 16023G28KT 12/11 A2974 RMK A01 T01240107  RH  089%=      5-min Rain = 0
KSW1 230712Z 17021KT 12/11 A2974 RMK A01 T01240107  RH  089%=      5-min Rain = 0
KSW1 230713Z 17020KT 12/11 A2974 RMK A01 T01240107  RH  089%=      5-min Rain = 0
KSW1 230714Z 16020G28KT 12/11 A2974 RMK A01 T01240107  RH  089%=      5-min Rain = 0
KSW1 230715Z 17022KT 12/11 A2974 RMK A01 T01240107  RH  089%=      5-min Rain = 0
KSW1 230716Z 17025KT 12/11 A2973 RMK A01 T01240107  RH  089%=      5-min Rain = 0
KSW1 230717Z 17025G30KT 13/11 A2973 RMK A01 T01250107  RH  089%=      5-min Rain = 0
KSW1 230718Z 18025KT 13/11 A2973 RMK A01 T01260107  RH  089%=      5-min Rain = 0
KSW1 230719Z 17018KT 13/11 A2973 RMK A01 T01260107  RH  089%=      5-min Rain = 0
KSW1 230720Z 17021G29KT 13/11 A2973 RMK A01 T01260108  RH  089%=      5-min Rain = 0
KSW1 230721Z 17027G32KT 13/11 A2973 RMK A01 T01250108  RH  089%=      5-min Rain = 0
KSW1 230722Z 17024KT 13/11 A2973 RMK A01 T01260108  RH  089%=      5-min Rain = 0
KSW1 230723Z 17022KT 13/11 A2973 RMK A01 T01260108  RH  089%=      5-min Rain = 0
KSW1 230724Z 17022KT 13/11 A2973 RMK A01 T01260108  RH  089%=      5-min Rain = 0
KSW1 230725Z 17024KT 13/11 A2973 RMK A01 T01260109  RH  089%=      5-min Rain = 0
KSW1 230726Z 17021KT 13/11 A2973 RMK A01 T01260109  RH  089%=      5-min Rain = 0
KSW1 230727Z 16022G30KT 13/11 A2973 RMK A01 T01260109  RH  089%=      5-min Rain = 0
KSW1 230728Z 17022G28KT 13/11 A2973 RMK A01 T01260109  RH  089%=      5-min Rain = 0
KSW1 230729Z 17020G26KT 13/11 A2973 RMK A01 T01270109  RH  089%=      5-min Rain = 0
KSW1 230730Z 17024G30KT 13/11 A2972 RMK A01 T01270109  RH  089%=      5-min Rain = 0
KSW1 230731Z 17022KT 13/11 A2973 RMK A01 T01270109  RH  089%=      5-min Rain = 0
KSW1 230732Z 17022G28KT 13/11 A2973 RMK A01 T01280109  RH  089%=      5-min Rain = 0
KSW1 230733Z 18022G27KT 13/11 A2974 RMK A01 T01280110  RH  089%=      5-min Rain = 0
KSW1 230734Z 18022KT 13/11 A2975 RMK A01 T01280110  RH  089%=      5-min Rain = 0
KSW1 230735Z 19017KT 13/11 A2976 RMK A01 T01290110  RH  089%=      5-min Rain = 0
KSW1 230736Z 21017G25KT 13/11 A2978 RMK A01 T01290110  RH  088%=      5-min Rain = 0
KSW1 230737Z 22018KT 13/11 A2979 RMK A01 T01290110  RH  088%=      5-min Rain = 0
KSW1 230738Z 22018G23KT 13/11 A2979 RMK A01 T01290110  RH  088%=      5-min Rain = 0
KSW1 230739Z 22015KT 13/11 A2979 RMK A01 T01290110  RH  088%=      5-min Rain = 0
KSW1 230740Z 22016G21KT 13/11 A2979 RMK A01 T01300110  RH  088%=      5-min Rain = 0
KSW1 230741Z 22016KT 13/11 A2978 RMK A01 T01300110  RH  088%=      5-min Rain = 0
KSW1 230742Z 22014KT 13/11 A2979 RMK A01 T01300110  RH  088%=      5-min Rain = 0
KSW1 230743Z 22015KT 13/11 A2978 RMK A01 T01300110  RH  087%=      5-min Rain = 0
KSW1 230744Z 21016KT 13/11 A2978 RMK A01 T01300110  RH  087%=      5-min Rain = 0
KSW1 230745Z 21017G22KT 13/11 A2978 RMK A01 T01310110  RH  087%=      5-min Rain = 0
KSW1 230746Z 20015KT 13/11 A2978 RMK A01 T01310110  RH  087%=      5-min Rain = 0
KSW1 230747Z 20014KT 13/11 A2978 RMK A01 T01310110  RH  087%=      5-min Rain = 0
KSW1 230748Z 20014KT 13/11 A2978 RMK A01 T01310110  RH  087%=      5-min Rain = 0
KSW1 230749Z 21015KT 13/11 A2978 RMK A01 T01310111  RH  087%=      5-min Rain = 0
KSW1 230750Z 21012KT 13/11 A2978 RMK A01 T01310110  RH  087%=      5-min Rain = 0
KSW1 230751Z 21011KT 13/11 A2978 RMK A01 T01310110  RH  087%=      5-min Rain = 0
KSW1 230752Z 21012KT 13/11 A2978 RMK A01 T01310111  RH  087%=      5-min Rain = 0
KSW1 230753Z 22011KT 13/11 A2978 RMK A01 T01310110  RH  087%=      5-min Rain = 0
KSW1 230754Z 21013KT 13/11 A2978 RMK A01 T01310110  RH  087%=      5-min Rain = 0
KSW1 230755Z 21014KT 13/11 A2978 RMK A01 T01310110  RH  087%=      5-min Rain = 0
KSW1 230756Z 20014G19KT 13/11 A2978 RMK A01 T01310110  RH  087%=      5-min Rain = 0
KSW1 230757Z 20012KT 13/11 A2978 RMK A01 T01320110  RH  087%=      5-min Rain = 0
KSW1 230758Z 21012G18KT 13/11 A2978 RMK A01 T01320110  RH  087%=      5-min Rain = 0
KSW1 230759Z 21017G22KT 13/11 A2978 RMK A01 T01320110  RH  087%=      5-min Rain = 0
KSW1 230800Z 22015KT 13/11 A2978 RMK A01 T01330111  RH  086%=      5-min Rain = 0
KSW1 230801Z 21015KT 13/11 A2978 RMK A01 T01330111  RH  086%=      5-min Rain = 0
KSW1 230802Z 22018KT 13/11 A2979 RMK A01 T01330111  RH  086%=      5-min Rain = 0
KSW1 230803Z 22019KT 13/11 A2979 RMK A01 T01330112  RH  087%=      5-min Rain = 0
KSW1 230804Z 22016KT 13/11 A2979 RMK A01 T01320113  RH  088%=      5-min Rain = 0.01
KSW1 230805Z 21018KT 13/11 A2979 RMK A01 T01300113  RH  089%=      5-min Rain = 0
KSW1 230806Z 21015KT 13/11 A2979 RMK A01 T01290113  RH  090%=      5-min Rain = 0
KSW1 230807Z 20019KT 13/11 A2979 RMK A01 T01280113  RH  091%=      5-min Rain = 0
KSW1 230808Z 20017G25KT 13/11 A2979 RMK A01 T01270113  RH  091%=      5-min Rain = 0
KSW1 230809Z 20022G28KT 13/11 A2979 RMK A01 T01270112  RH  091%=      5-min Rain = 0
KSW1 230810Z 20021KT 13/11 A2979 RMK A01 T01270112  RH  090%=      5-min Rain = 0
KSW1 230811Z 21020KT 13/11 A298 RMK A01 T01270112  RH  091%=      5-min Rain = 0
KSW1 230812Z 21016G21KT 13/11 A298 RMK A01 T01260112  RH  091%=      5-min Rain = 0
KSW1 230813Z 21017KT 13/11 A298 RMK A01 T01260112  RH  091%=      5-min Rain = 0
KSW1 230814Z 21019KT 13/11 A298 RMK A01 T01250112  RH  091%=      5-min Rain = 0
KSW1 230815Z 21020KT 13/11 A298 RMK A01 T01250111  RH  091%=      5-min Rain = 0
KSW1 230816Z 23015KT 13/11 A298 RMK A01 T01260111  RH  091%=      5-min Rain = 0
KSW1 230817Z 23015KT 13/11 A2979 RMK A01 T01250111  RH  092%=      5-min Rain = 0
KSW1 230818Z 23016KT 12/11 A2979 RMK A01 T01230111  RH  092%=      5-min Rain = 0
KSW1 230819Z 22014KT 12/11 A2979 RMK A01 T01230111  RH  092%=      5-min Rain = 0
KSW1 230820Z 22012KT 12/11 A2979 RMK A01 T01220111  RH  093%=      5-min Rain = 0
KSW1 230821Z 22017KT 12/11 A2979 RMK A01 T01210111  RH  093%=      5-min Rain = 0
KSW1 230822Z 23016KT 12/11 A2979 RMK A01 T01210110  RH  093%=      5-min Rain = 0
KSW1 230823Z 22017KT 12/11 A2979 RMK A01 T01210110  RH  093%=      5-min Rain = 0
KSW1 230824Z 22016G22KT 12/11 A2979 RMK A01 T01210110  RH  093%=      5-min Rain = 0
KSW1 230825Z 22018KT 12/11 A298 RMK A01 T01210109  RH  092%=      5-min Rain = 0
KSW1 230826Z 21016G22KT 12/11 A2979 RMK A01 T01210109  RH  092%=      5-min Rain = 0
KSW1 230827Z 21017G22KT 12/11 A298 RMK A01 T01210109  RH  092%=      5-min Rain = 0
KSW1 230828Z 21017KT 12/11 A298 RMK A01 T01220109  RH  092%=      5-min Rain = 0
KSW1 230829Z 21018KT 12/11 A298 RMK A01 T01210108  RH  092%=      5-min Rain = 0
KSW1 230830Z 21019KT 12/11 A298 RMK A01 T01210107  RH  091%=      5-min Rain = 0
KSW1 230831Z 22016G21KT 12/11 A2981 RMK A01 T01210106  RH  091%=      5-min Rain = 0
KSW1 230832Z 21016G21KT 12/11 A2981 RMK A01 T01210107  RH  091%=      5-min Rain = 0
KSW1 230833Z 21016KT 12/11 A2981 RMK A01 T01210107  RH  091%=      5-min Rain = 0
KSW1 230834Z 21016G21KT 12/11 A2981 RMK A01 T01210106  RH  091%=      5-min Rain = 0
KSW1 230835Z 21019KT 12/10 A2981 RMK A01 T01210104  RH  090%=      5-min Rain = 0
KSW1 230836Z 21019G24KT 12/10 A298 RMK A01 T01210103  RH  088%=      5-min Rain = 0
KSW1 230837Z 21017KT 12/10 A298 RMK A01 T01220102  RH  087%=      5-min Rain = 0
KSW1 230838Z 21015G20KT 12/10 A298 RMK A01 T01220101  RH  087%=      5-min Rain = 0
KSW1 230839Z 21015KT 12/10 A2981 RMK A01 T01220102  RH  088%=      5-min Rain = 0
KSW1 230840Z 21017KT 12/10 A2981 RMK A01 T01210101  RH  087%=      5-min Rain = 0
KSW1 230841Z 21016KT 12/10 A2981 RMK A01 T01210100  RH  087%=      5-min Rain = 0
KSW1 230842Z 21018KT 12/10 A2981 RMK A01 T01200099  RH  087%=      5-min Rain = 0
KSW1 230843Z 21016KT 12/10 A2981 RMK A01 T01200099  RH  087%=      5-min Rain = 0
KSW1 230844Z 22015G20KT 12/10 A2981 RMK A01 T01200099  RH  087%=      5-min Rain = 0
KSW1 230845Z 23016KT 12/10 A2981 RMK A01 T01200099  RH  087%=      5-min Rain = 0
KSW1 230846Z 22015G20KT 12/10 A2981 RMK A01 T01190098  RH  087%=      5-min Rain = 0
KSW1 230847Z 22015G22KT 12/10 A2981 RMK A01 T01190097  RH  086%=      5-min Rain = 0
KSW1 230848Z 22016KT 12/09 A2981 RMK A01 T01190093  RH  084%=      5-min Rain = 0
KSW1 230849Z 23015KT 12/09 A2981 RMK A01 T01190093  RH  084%=      5-min Rain = 0
KSW1 230850Z 22017KT 12/09 A298 RMK A01 T01190092  RH  084%=      5-min Rain = 0
KSW1 230851Z 23018KT 12/09 A298 RMK A01 T01180090  RH  083%=      5-min Rain = 0
KSW1 230852Z 23013KT 12/09 A298 RMK A01 T01180090  RH  083%=      5-min Rain = 0
KSW1 230853Z 23017KT 12/09 A298 RMK A01 T01170089  RH  083%=      5-min Rain = 0
KSW1 230854Z 23015KT 12/09 A298 RMK A01 T01170087  RH  082%=      5-min Rain = 0
KSW1 230855Z 23015KT 12/09 A298 RMK A01 T01160087  RH  082%=      5-min Rain = 0
KSW1 230856Z 23014KT 12/09 A298 RMK A01 T01150086  RH  082%=      5-min Rain = 0
KSW1 230857Z 24017KT 11/08 A298 RMK A01 T01140081  RH  080%=      5-min Rain = 0
KSW1 230858Z 24018KT 12/08 A298 RMK A01 T01150079  RH  079%=      5-min Rain = 0
KSW1 230859Z 24019KT 12/08 A298 RMK A01 T01150076  RH  077%=      5-min Rain = 0
KSW1 230900Z 24020KT 12/07 A2981 RMK A01 T01160074  RH  076%=      5-min Rain = 0
KSW1 230901Z 24018KT 12/08 A2981 RMK A01 T01160075  RH  076%=      5-min Rain = 0
KSW1 230902Z 24019KT 12/07 A2981 RMK A01 T01150074  RH  076%=      5-min Rain = 0
KSW1 230903Z 24021KT 12/07 A2981 RMK A01 T01150071  RH  074%=      5-min Rain = 0
KSW1 230904Z 23016KT 12/07 A2981 RMK A01 T01150073  RH  076%=      5-min Rain = 0
KSW1 230905Z 24019KT 11/07 A2981 RMK A01 T01140074  RH  077%=      5-min Rain = 0
KSW1 230906Z 24016KT 11/08 A2981 RMK A01 T01130075  RH  077%=      5-min Rain = 0
KSW1 230907Z 23016KT 11/08 A2981 RMK A01 T01120075  RH  078%=      5-min Rain = 0
KSW1 230908Z 24019G26KT 11/07 A2981 RMK A01 T01120073  RH  077%=      5-min Rain = 0
KSW1 230909Z 24019KT 11/07 A2981 RMK A01 T01110069  RH  075%=      5-min Rain = 0
KSW1 230910Z 24021KT 11/06 A2981 RMK A01 T01120064  RH  072%=      5-min Rain = 0
KSW1 230911Z 24020G26KT 11/06 A2981 RMK A01 T01120059  RH  070%=      5-min Rain = 0
KSW1 230912Z 24021G26KT 11/06 A2982 RMK A01 T01120055  RH  068%=      5-min Rain = 0
KSW1 230913Z 24019KT 11/06 A2982 RMK A01 T01120055  RH  068%=      5-min Rain = 0
KSW1 230914Z 24021G27KT 11/05 A2982 RMK A01 T01110053  RH  067%=      5-min Rain = 0
KSW1 230915Z 25021G26KT 11/05 A2982 RMK A01 T01100045  RH  064%=      5-min Rain = 0
KSW1 230916Z 24020G25KT 11/04 A2982 RMK A01 T01100043  RH  063%=      5-min Rain = 0
KSW1 230917Z 24022KT 11/04 A2982 RMK A01 T01100041  RH  062%=      5-min Rain = 0
KSW1 230918Z 24017KT 11/04 A2982 RMK A01 T01090044  RH  064%=      5-min Rain = 0
KSW1 230919Z 24018G23KT 11/05 A2982 RMK A01 T01070045  RH  065%=      5-min Rain = 0
KSW1 230920Z 24018G23KT 11/05 A2982 RMK A01 T01060046  RH  066%=      5-min Rain = 0
KSW1 230921Z 24018G23KT 11/05 A2982 RMK A01 T01050046  RH  067%=      5-min Rain = 0
KSW1 230922Z 24016KT 11/05 A2983 RMK A01 T01050047  RH  067%=      5-min Rain = 0
KSW1 230923Z 23016KT 11/05 A2983 RMK A01 T01050050  RH  069%=      5-min Rain = 0
KSW1 230924Z 24016KT 10/05 A2983 RMK A01 T01040052  RH  070%=      5-min Rain = 0
KSW1 230925Z 24017KT 10/05 A2983 RMK A01 T01030053  RH  071%=      5-min Rain = 0
KSW1 230926Z 24014KT 10/05 A2983 RMK A01 T01030053  RH  071%=      5-min Rain = 0
KSW1 230927Z 24016KT 10/05 A2983 RMK A01 T01020051  RH  071%=      5-min Rain = 0
KSW1 230928Z 24015KT 10/05 A2983 RMK A01 T01020049  RH  070%=      5-min Rain = 0
KSW1 230929Z 24015KT 10/05 A2983 RMK A01 T01020047  RH  069%=      5-min Rain = 0
KSW1 230930Z 24015KT 10/05 A2983 RMK A01 T01020045  RH  068%=      5-min Rain = 0
KSW1 230931Z 24017KT 10/04 A2983 RMK A01 T01020043  RH  067%=      5-min Rain = 0
KSW1 230932Z 24016G21KT 10/04 A2982 RMK A01 T01020039  RH  065%=      5-min Rain = 0
KSW1 230933Z 24014G19KT 10/04 A2982 RMK A01 T01030041  RH  065%=      5-min Rain = 0
KSW1 230934Z 24016KT 10/04 A2982 RMK A01 T01020039  RH  065%=      5-min Rain = 0
KSW1 230935Z 24017G22KT 10/04 A2983 RMK A01 T01020036  RH  064%=      5-min Rain = 0
KSW1 230936Z 24019KT 10/03 A2983 RMK A01 T01030033  RH  062%=      5-min Rain = 0
KSW1 230937Z 24017KT 10/03 A2983 RMK A01 T01040031  RH  061%=      5-min Rain = 0
KSW1 230938Z 24017KT 10/03 A2982 RMK A01 T01040032  RH  061%=      5-min Rain = 0
KSW1 230939Z 24014KT 10/03 A2983 RMK A01 T01030034  RH  062%=      5-min Rain = 0
KSW1 230940Z 24014KT 10/03 A2983 RMK A01 T01020034  RH  063%=      5-min Rain = 0
KSW1 230941Z 24015KT 10/03 A2983 RMK A01 T01010031  RH  062%=      5-min Rain = 0
KSW1 230942Z 24016G21KT 10/03 A2983 RMK A01 T01010031  RH  062%=      5-min Rain = 0
KSW1 230943Z 24013KT 10/03 A2983 RMK A01 T01010032  RH  062%=      5-min Rain = 0
KSW1 230944Z 24014KT 10/03 A2983 RMK A01 T01000034  RH  063%=      5-min Rain = 0
KSW1 230945Z 24016KT 10/03 A2983 RMK A01 T00990032  RH  063%=      5-min Rain = 0
KSW1 230946Z 23014KT 10/03 A2983 RMK A01 T00990033  RH  063%=      5-min Rain = 0
KSW1 230947Z 23013KT 10/03 A2983 RMK A01 T00990033  RH  064%=      5-min Rain = 0
KSW1 230948Z 23013KT 10/03 A2983 RMK A01 T00980034  RH  065%=      5-min Rain = 0
KSW1 230949Z 23014KT 10/04 A2983 RMK A01 T00970035  RH  065%=      5-min Rain = 0
KSW1 230950Z 23013KT 10/03 A2983 RMK A01 T00970034  RH  065%=      5-min Rain = 0
KSW1 230951Z 22012KT 10/04 A2983 RMK A01 T00970036  RH  066%=      5-min Rain = 0
KSW1 230952Z 23011KT 10/04 A2983 RMK A01 T00960036  RH  066%=      5-min Rain = 0
KSW1 230953Z 23013KT 10/03 A2983 RMK A01 T00960034  RH  066%=      5-min Rain = 0
KSW1 230954Z 22014KT 10/03 A2983 RMK A01 T00950032  RH  065%=      5-min Rain = 0
KSW1 230955Z 22013KT 10/03 A2983 RMK A01 T00960031  RH  064%=      5-min Rain = 0
KSW1 230956Z 23013KT 10/03 A2983 RMK A01 T00960031  RH  064%=      5-min Rain = 0
KSW1 230957Z 23013KT 10/03 A2983 RMK A01 T00950032  RH  065%=      5-min Rain = 0
KSW1 230958Z 23015KT 10/03 A2983 RMK A01 T00950029  RH  063%=      5-min Rain = 0
KSW1 230959Z 23016KT 10/03 A2983 RMK A01 T00950027  RH  062%=      5-min Rain = 0
KSW1 231000Z 23015KT 10/03 A2984 RMK A01 T00960027  RH  062%=      5-min Rain = 0
KSW1 231001Z 23016KT 10/03 A2984 RMK A01 T00960025  RH  062%=      5-min Rain = 0
KSW1 231002Z 23017G22KT 10/02 A2983 RMK A01 T00950024  RH  061%=      5-min Rain = 0
KSW1 231003Z 23016KT 10/02 A2984 RMK A01 T00950023  RH  061%=      5-min Rain = 0
KSW1 231004Z 23014KT 09/02 A2984 RMK A01 T00940023  RH  061%=      5-min Rain = 0
KSW1 231005Z 24013G18KT 09/02 A2984 RMK A01 T00930024  RH  062%=      5-min Rain = 0
KSW1 231006Z 23017KT 09/02 A2984 RMK A01 T00920021  RH  061%=      5-min Rain = 0
KSW1 231007Z 23015G21KT 09/02 A2984 RMK A01 T00920019  RH  060%=      5-min Rain = 0
KSW1 231008Z 24014KT 09/02 A2984 RMK A01 T00920018  RH  060%=      5-min Rain = 0
KSW1 231009Z 24016KT 09/02 A2984 RMK A01 T00920016  RH  059%=      5-min Rain = 0
KSW1 231010Z 24017KT 09/01 A2984 RMK A01 T00920014  RH  058%=      5-min Rain = 0
KSW1 231011Z 24016KT 09/01 A2984 RMK A01 T00920013  RH  058%=      5-min Rain = 0
KSW1 231012Z 24016KT 09/01 A2984 RMK A01 T00920013  RH  058%=      5-min Rain = 0
KSW1 231013Z 24015G20KT 09/01 A2984 RMK A01 T00910014  RH  058%=      5-min Rain = 0
KSW1 231014Z 24016KT 09/01 A2984 RMK A01 T00900013  RH  058%=      5-min Rain = 0
KSW1 231015Z 24017KT 09/01 A2984 RMK A01 T00900011  RH  058%=      5-min Rain = 0
KSW1 231016Z 24015KT 09/01 A2984 RMK A01 T00900010  RH  057%=      5-min Rain = 0
KSW1 231017Z 24015KT 09/01 A2984 RMK A01 T00900010  RH  058%=      5-min Rain = 0
KSW1 231018Z 24017G23KT 09/01 A2984 RMK A01 T00890010  RH  057%=      5-min Rain = 0
KSW1 231019Z 24016G21KT 09/01 A2985 RMK A01 T00890008  RH  057%=      5-min Rain = 0
KSW1 231020Z 24017G22KT 09/01 A2984 RMK A01 T00880007  RH  057%=      5-min Rain = 0
KSW1 231021Z 24016G21KT 09/01 A2984 RMK A01 T00880006  RH  056%=      5-min Rain = 0
KSW1 231022Z 24016G25KT 09/01 A2984 RMK A01 T00880005  RH  056%=      5-min Rain = 0
KSW1 231023Z 24015KT 09/00 A2985 RMK A01 T00890002  RH  055%=      5-min Rain = 0
KSW1 231024Z 24017G22KT 09/01 A2985 RMK A01 T00880006  RH  056%=      5-min Rain = 0
KSW1 231025Z 23016KT 09/00 A2984 RMK A01 T00870004  RH  056%=      5-min Rain = 0
KSW1 231026Z 24016G21KT 09/01 A2984 RMK A01 T00870005  RH  056%=      5-min Rain = 0
KSW1 231027Z 24016KT 09/01 A2984 RMK A01 T00860006  RH  057%=      5-min Rain = 0
KSW1 231028Z 24016KT 09/01 A2984 RMK A01 T00850006  RH  057%=      5-min Rain = 0
KSW1 231029Z 24015KT 09/00 A2984 RMK A01 T00850004  RH  057%=      5-min Rain = 0
KSW1 231030Z 24018KT 09/00 A2984 RMK A01 T00850003  RH  057%=      5-min Rain = 0
KSW1 231031Z 23015KT 08/00 A2984 RMK A01 T00840002  RH  056%=      5-min Rain = 0
KSW1 231032Z 23014KT 08/00 A2984 RMK A01 T00840004  RH  057%=      5-min Rain = 0
KSW1 231033Z 23013KT 08/00 A2984 RMK A01 T00830004  RH  058%=      5-min Rain = 0
KSW1 231034Z 23015KT 08/00 A2984 RMK A01 T00820003  RH  057%=      5-min Rain = 0
KSW1 231035Z 23014KT 08/00 A2984 RMK A01 T00820003  RH  058%=      5-min Rain = 0
KSW1 231036Z 23015KT 08/00 A2984 RMK A01 T00820002  RH  057%=      5-min Rain = 0
KSW1 231037Z 23014KT 08/00 A2984 RMK A01 T00810002  RH  057%=      5-min Rain = 0
KSW1 231038Z 23013KT 08/00 A2984 RMK A01 T00800002  RH  058%=      5-min Rain = 0
KSW1 231039Z 23015G20KT 08/00 A2983 RMK A01 T00800000  RH  057%=      5-min Rain = 0
KSW1 231040Z 22014KT 08/M00 A2983 RMK A01 T00801002  RH  056%=      5-min Rain = 0
KSW1 231041Z 23012KT 08/M00 A2983 RMK A01 T00801001  RH  056%=      5-min Rain = 0
KSW1 231042Z 23013KT 08/00 A2984 RMK A01 T008000-0  RH  057%=      5-min Rain = 0
KSW1 231043Z 23012KT 08/00 A2983 RMK A01 T00780000  RH  058%=      5-min Rain = 0
KSW1 231044Z 23014KT 08/00 A2983 RMK A01 T007700-0  RH  058%=      5-min Rain = 0
KSW1 231045Z 23014KT 08/M00 A2984 RMK A01 T00771001  RH  058%=      5-min Rain = 0
KSW1 231046Z 23015KT 08/M00 A2984 RMK A01 T00771002  RH  057%=      5-min Rain = 0
KSW1 231047Z 23014KT 08/M00 A2984 RMK A01 T00771002  RH  058%=      5-min Rain = 0
KSW1 231048Z 23013KT 08/M00 A2984 RMK A01 T00761001  RH  058%=      5-min Rain = 0
KSW1 231049Z 22015KT 08/M00 A2984 RMK A01 T00751002  RH  058%=      5-min Rain = 0
KSW1 231050Z 22014KT 08/M00 A2984 RMK A01 T00751002  RH  058%=      5-min Rain = 0
KSW1 231051Z 23016KT 08/M00 A2983 RMK A01 T00751003  RH  058%=      5-min Rain = 0
KSW1 231052Z 23017KT 08/M00 A2984 RMK A01 T00751004  RH  057%=      5-min Rain = 0
KSW1 231053Z 23016KT 08/M01 A2984 RMK A01 T00751005  RH  057%=      5-min Rain = 0
KSW1 231054Z 23016KT 08/M00 A2984 RMK A01 T00751004  RH  057%=      5-min Rain = 0
KSW1 231055Z 23017KT 08/M01 A2984 RMK A01 T00751005  RH  057%=      5-min Rain = 0
KSW1 231056Z 23017KT 08/M01 A2984 RMK A01 T00751005  RH  057%=      5-min Rain = 0
KSW1 231057Z 23017KT 07/M00 A2984 RMK A01 T00741004  RH  058%=      5-min Rain = 0
KSW1 231058Z 23017G22KT 07/M00 A2984 RMK A01 T00731004  RH  058%=      5-min Rain = 0
KSW1 231059Z 23017G22KT 07/M01 A2984 RMK A01 T00731006  RH  057%=      5-min Rain = 0
KSW1 231100Z 23018KT 07/M01 A2984 RMK A01 T00731007  RH  057%=      5-min Rain = 0
KSW1 231101Z 23017KT 07/M01 A2984 RMK A01 T00721007  RH  057%=      5-min Rain = 0
KSW1 231102Z 24017KT 07/M01 A2984 RMK A01 T00721006  RH  057%=      5-min Rain = 0
KSW1 231103Z 24017KT 07/M01 A2984 RMK A01 T00721007  RH  058%=      5-min Rain = 0
KSW1 231104Z 24018KT 07/M01 A2984 RMK A01 T00711008  RH  057%=      5-min Rain = 0
KSW1 231105Z 24021G28KT 07/M01 A2984 RMK A01 T00721009  RH  057%=      5-min Rain = 0
KSW1 231106Z 24020KT 07/M01 A2984 RMK A01 T00731012  RH  055%=      5-min Rain = 0
KSW1 231107Z 23017KT 07/M01 A2984 RMK A01 T00741010  RH  055%=      5-min Rain = 0
KSW1 231108Z 24018G23KT 07/M01 A2984 RMK A01 T00721009  RH  056%=      5-min Rain = 0
KSW1 231109Z 23021G27KT 07/M01 A2984 RMK A01 T00721011  RH  056%=      5-min Rain = 0
KSW1 231110Z 23021G26KT 07/M01 A2984 RMK A01 T00731014  RH  054%=      5-min Rain = 0
KSW1 231111Z 24020KT 07/M01 A2984 RMK A01 T00741014  RH  054%=      5-min Rain = 0
KSW1 231112Z 24020KT 07/M01 A2984 RMK A01 T00741013  RH  054%=      5-min Rain = 0
KSW1 231113Z 24018KT 07/M01 A2984 RMK A01 T00741013  RH  054%=      5-min Rain = 0
KSW1 231114Z 24018KT 07/M01 A2984 RMK A01 T00731013  RH  055%=      5-min Rain = 0
KSW1 231115Z 24018KT 07/M01 A2984 RMK A01 T00721013  RH  055%=      5-min Rain = 0
KSW1 231116Z 24018KT 07/M01 A2984 RMK A01 T00721013  RH  055%=      5-min Rain = 0
KSW1 231117Z 24020G25KT 07/M01 A2984 RMK A01 T00721013  RH  055%=      5-min Rain = 0
KSW1 231118Z 24016KT 07/M01 A2984 RMK A01 T00711014  RH  055%=      5-min Rain = 0
KSW1 231119Z 24018G25KT 07/M01 A2984 RMK A01 T00711013  RH  055%=      5-min Rain = 0
KSW1 231120Z 24020G25KT 07/M02 A2984 RMK A01 T00701015  RH  055%=      5-min Rain = 0
KSW1 231121Z 24019G25KT 07/M01 A2984 RMK A01 T00711014  RH  055%=      5-min Rain = 0
KSW1 231122Z 24018KT 07/M01 A2985 RMK A01 T00711014  RH  055%=      5-min Rain = 0
KSW1 231123Z 24021KT 07/M01 A2984 RMK A01 T00701014  RH  055%=      5-min Rain = 0
KSW1 231124Z 24018G23KT 07/M01 A2984 RMK A01 T00701014  RH  055%=      5-min Rain = 0
KSW1 231125Z 24019KT 07/M01 A2984 RMK A01 T00691014  RH  055%=      5-min Rain = 0
KSW1 231126Z 24019KT 07/M01 A2984 RMK A01 T00691014  RH  055%=      5-min Rain = 0
KSW1 231127Z 24018G24KT 07/M01 A2984 RMK A01 T00691014  RH  056%=      5-min Rain = 0
KSW1 231128Z 24016G21KT 07/M01 A2985 RMK A01 T00681014  RH  056%=      5-min Rain = 0
KSW1 231129Z 24017G22KT 07/M01 A2985 RMK A01 T00681014  RH  056%=      5-min Rain = 0
KSW1 231130Z 24019KT 07/M02 A2985 RMK A01 T00671015  RH  056%=      5-min Rain = 0
KSW1 231131Z 24018KT 07/M02 A2985 RMK A01 T00671015  RH  056%=      5-min Rain = 0
KSW1 231132Z 24018KT 07/M02 A2985 RMK A01 T00671016  RH  055%=      5-min Rain = 0
KSW1 231133Z 24017G24KT 07/M02 A2985 RMK A01 T00671016  RH  055%=      5-min Rain = 0
KSW1 231134Z 24017KT 07/M02 A2985 RMK A01 T00671016  RH  055%=      5-min Rain = 0
KSW1 231135Z 24017G26KT 07/M02 A2985 RMK A01 T00671016  RH  055%=      5-min Rain = 0
KSW1 231136Z 24020KT 07/M02 A2985 RMK A01 T00671018  RH  055%=      5-min Rain = 0
KSW1 231137Z 24017KT 07/M02 A2985 RMK A01 T00671018  RH  055%=      5-min Rain = 0
KSW1 231138Z 24017G22KT 07/M02 A2985 RMK A01 T00671017  RH  055%=      5-min Rain = 0
KSW1 231139Z 24015G20KT 07/M02 A2985 RMK A01 T00661016  RH  056%=      5-min Rain = 0
KSW1 231140Z 24017KT 07/M02 A2985 RMK A01 T00651017  RH  056%=      5-min Rain = 0
KSW1 231141Z 24018G24KT 07/M02 A2985 RMK A01 T00651018  RH  055%=      5-min Rain = 0
KSW1 231142Z 25018KT 07/M02 A2986 RMK A01 T00661019  RH  055%=      5-min Rain = 0
KSW1 231143Z 24018KT 07/M02 A2986 RMK A01 T00661019  RH  055%=      5-min Rain = 0
KSW1 231144Z 24016G21KT 07/M02 A2986 RMK A01 T00661020  RH  054%=      5-min Rain = 0
KSW1 231145Z 24020G25KT 07/M02 A2986 RMK A01 T00661021  RH  054%=      5-min Rain = 0
KSW1 231146Z 25018KT 07/M02 A2986 RMK A01 T00671022  RH  053%=      5-min Rain = 0
KSW1 231147Z 24017G24KT 07/M02 A2986 RMK A01 T00671021  RH  053%=      5-min Rain = 0
KSW1 231148Z 24021G26KT 07/M02 A2986 RMK A01 T00661023  RH  053%=      5-min Rain = 0
KSW1 231149Z 24020KT 07/M03 A2986 RMK A01 T00681026  RH  051%=      5-min Rain = 0
KSW1 231150Z 25018G24KT 07/M03 A2986 RMK A01 T00681025  RH  051%=      5-min Rain = 0
KSW1 231151Z 24019G24KT 07/M02 A2986 RMK A01 T00681024  RH  052%=      5-min Rain = 0
KSW1 231152Z 25020G28KT 07/M03 A2986 RMK A01 T00681026  RH  051%=      5-min Rain = 0
KSW1 231153Z 25017G22KT 07/M03 A2986 RMK A01 T00681025  RH  052%=      5-min Rain = 0
KSW1 231154Z 25022G29KT 07/M03 A2986 RMK A01 T00671025  RH  052%=      5-min Rain = 0
KSW1 231155Z 25021G28KT 07/M03 A2986 RMK A01 T00671030  RH  050%=      5-min Rain = 0
KSW1 231156Z 25020G25KT 07/M03 A2986 RMK A01 T00681031  RH  049%=      5-min Rain = 0
KSW1 231157Z 26024G29KT 07/M03 A2986 RMK A01 T00681033  RH  049%=      5-min Rain = 0
KSW1 231158Z 25027KT 07/M04 A2986 RMK A01 T00701037  RH  047%=      5-min Rain = 0
KSW1 231159Z 26023KT 07/M04 A2986 RMK A01 T00711038  RH  046%=      5-min Rain = 0
KSW1 231200Z 26022G27KT 07/M04 A2986 RMK A01 T00711037  RH  046%=      5-min Rain = 0
KSW1 231201Z 25023KT 07/M04 A2986 RMK A01 T00701036  RH  047%=      5-min Rain = 0
KSW1 231202Z 26022G28KT 07/M04 A2986 RMK A01 T00691037  RH  047%=      5-min Rain = 0
KSW1 231203Z 26023G31KT 07/M04 A2986 RMK A01 T00681036  RH  047%=      5-min Rain = 0
KSW1 231204Z 26025G32KT 07/M04 A2986 RMK A01 T00681037  RH  047%=      5-min Rain = 0
KSW1 231205Z 26025G31KT 07/M04 A2986 RMK A01 T00681038  RH  047%=      5-min Rain = 0
KSW1 231206Z 26022G27KT 07/M04 A2986 RMK A01 T00691038  RH  046%=      5-min Rain = 0
KSW1 231207Z 25021KT 07/M04 A2986 RMK A01 T00681037  RH  047%=      5-min Rain = 0
KSW1 231208Z 26022KT 07/M04 A2986 RMK A01 T00671036  RH  048%=      5-min Rain = 0
KSW1 231209Z 25024KT 07/M04 A2987 RMK A01 T00671037  RH  047%=      5-min Rain = 0
KSW1 231210Z 25021KT 07/M04 A2986 RMK A01 T00671037  RH  048%=      5-min Rain = 0
KSW1 231211Z 25020G25KT 07/M04 A2986 RMK A01 T00661035  RH  048%=      5-min Rain = 0
KSW1 231212Z 25020KT 07/M04 A2986 RMK A01 T00651035  RH  049%=      5-min Rain = 0
KSW1 231213Z 25021KT 07/M04 A2986 RMK A01 T00651035  RH  049%=      5-min Rain = 0
KSW1 231214Z 25021G26KT 07/M04 A2987 RMK A01 T00651036  RH  048%=      5-min Rain = 0
KSW1 231215Z 25020KT 07/M04 A2987 RMK A01 T00651036  RH  048%=      5-min Rain = 0
KSW1 231216Z 25025G30KT 07/M04 A2986 RMK A01 T00651037  RH  048%=      5-min Rain = 0
KSW1 231217Z 25023G30KT 07/M04 A2986 RMK A01 T00651040  RH  047%=      5-min Rain = 0
KSW1 231218Z 25024KT 07/M04 A2986 RMK A01 T00671041  RH  046%=      5-min Rain = 0
KSW1 231219Z 25024G30KT 07/M04 A2986 RMK A01 T00671041  RH  046%=      5-min Rain = 0
KSW1 231220Z 26021G29KT 07/M04 A2986 RMK A01 T00671041  RH  046%=      5-min Rain = 0
KSW1 231221Z 25021KT 07/M04 A2986 RMK A01 T00671040  RH  046%=      5-min Rain = 0
KSW1 231222Z 26020G25KT 07/M04 A2986 RMK A01 T00651040  RH  047%=      5-min Rain = 0
KSW1 231223Z 25021G26KT 07/M04 A2987 RMK A01 T00651039  RH  047%=      5-min Rain = 0
KSW1 231224Z 25021G26KT 06/M04 A2987 RMK A01 T00641039  RH  048%=      5-min Rain = 0
KSW1 231225Z 25021G28KT 06/M04 A2986 RMK A01 T00641042  RH  047%=      5-min Rain = 0
KSW1 231226Z 25020KT 06/M04 A2986 RMK A01 T00641041  RH  047%=      5-min Rain = 0
KSW1 231227Z 25022KT 06/M04 A2986 RMK A01 T00641040  RH  047%=      5-min Rain = 0
KSW1 231228Z 25020G27KT 06/M04 A2986 RMK A01 T00631040  RH  048%=      5-min Rain = 0
KSW1 231229Z 25021G29KT 06/M04 A2986 RMK A01 T00621040  RH  048%=      5-min Rain = 0
KSW1 231230Z 25023G29KT 06/M04 A2986 RMK A01 T00621040  RH  048%=      5-min Rain = 0
KSW1 231231Z 25025G32KT 06/M04 A2986 RMK A01 T00621042  RH  047%=      5-min Rain = 0
KSW1 231232Z 25021G26KT 06/M04 A2986 RMK A01 T00641041  RH  047%=      5-min Rain = 0
KSW1 231233Z 25020G25KT 06/M04 A2986 RMK A01 T00631040  RH  048%=      5-min Rain = 0
KSW1 231234Z 25020KT 06/M04 A2986 RMK A01 T00621040  RH  048%=      5-min Rain = 0
KSW1 231235Z 25021G26KT 06/M04 A2987 RMK A01 T00611040  RH  048%=      5-min Rain = 0
KSW1 231236Z 25021G27KT 06/M04 A2987 RMK A01 T00611040  RH  048%=      5-min Rain = 0
KSW1 231237Z 25020G25KT 06/M04 A2987 RMK A01 T00611040  RH  048%=      5-min Rain = 0
KSW1 231238Z 25021G30KT 06/M04 A2987 RMK A01 T00611039  RH  049%=      5-min Rain = 0
KSW1 231239Z 25019G26KT 06/M04 A2987 RMK A01 T00601039  RH  049%=      5-min Rain = 0
KSW1 231240Z 25021G26KT 06/M04 A2987 RMK A01 T00601040  RH  049%=      5-min Rain = 0
KSW1 231241Z 25023G28KT 06/M04 A2987 RMK A01 T00601040  RH  049%=      5-min Rain = 0
KSW1 231242Z 25023KT 06/M04 A2987 RMK A01 T00601041  RH  048%=      5-min Rain = 0
KSW1 231243Z 25021G27KT 06/M04 A2987 RMK A01 T00601041  RH  048%=      5-min Rain = 0
KSW1 231244Z 25021G26KT 06/M04 A2987 RMK A01 T00601042  RH  048%=      5-min Rain = 0
KSW1 231245Z 25021G26KT 06/M04 A2987 RMK A01 T00601042  RH  048%=      5-min Rain = 0
KSW1 231246Z 25023G28KT 06/M04 A2987 RMK A01 T00601041  RH  048%=      5-min Rain = 0
KSW1 231247Z 25022G28KT 06/M04 A2987 RMK A01 T00601042  RH  048%=      5-min Rain = 0
KSW1 231248Z 25022G27KT 06/M04 A2987 RMK A01 T00601041  RH  048%=      5-min Rain = 0
KSW1 231249Z 25019G24KT 06/M04 A2987 RMK A01 T00591041  RH  049%=      5-min Rain = 0
KSW1 231250Z 25021KT 06/M04 A2987 RMK A01 T00591041  RH  049%=      5-min Rain = 0
KSW1 231251Z 25021G29KT 06/M04 A2987 RMK A01 T00581042  RH  049%=      5-min Rain = 0
KSW1 231252Z 25022G28KT 06/M04 A2987 RMK A01 T00591043  RH  048%=      5-min Rain = 0
KSW1 231253Z 25023G28KT 06/M04 A2987 RMK A01 T00591043  RH  048%=      5-min Rain = 0
KSW1 231254Z 25021G27KT 06/M04 A2987 RMK A01 T00591042  RH  048%=      5-min Rain = 0
KSW1 231255Z 25021G27KT 06/M04 A2987 RMK A01 T00581042  RH  048%=      5-min Rain = 0
KSW1 231256Z 25019G24KT 06/M04 A2987 RMK A01 T00581042  RH  049%=      5-min Rain = 0
KSW1 231257Z 25022KT 06/M04 A2987 RMK A01 T00571042  RH  049%=      5-min Rain = 0
KSW1 231258Z 25022KT 06/M04 A2987 RMK A01 T00571043  RH  049%=      5-min Rain = 0
KSW1 231259Z 25019KT 06/M04 A2987 RMK A01 T00581042  RH  049%=      5-min Rain = 0
KSW1 231300Z 25020KT 06/M04 A2987 RMK A01 T00571042  RH  049%=      5-min Rain = 0
KSW1 231301Z 25018G23KT 06/M04 A2987 RMK A01 T00561042  RH  049%=      5-min Rain = 0
KSW1 231302Z 25021G26KT 06/M04 A2987 RMK A01 T00561042  RH  049%=      5-min Rain = 0
KSW1 231303Z 25019G28KT 06/M04 A2987 RMK A01 T00561044  RH  049%=      5-min Rain = 0
KSW1 231304Z 25020G26KT 06/M04 A2987 RMK A01 T00571043  RH  049%=      5-min Rain = 0
KSW1 231305Z 25019G26KT 06/M04 A2987 RMK A01 T00571044  RH  048%=      5-min Rain = 0
KSW1 231306Z 25023G28KT 06/M04 A2987 RMK A01 T00571044  RH  048%=      5-min Rain = 0
KSW1 231307Z 25022G28KT 06/M05 A2987 RMK A01 T00571045  RH  048%=      5-min Rain = 0
KSW1 231308Z 25020KT 06/M04 A2987 RMK A01 T00571043  RH  048%=      5-min Rain = 0
KSW1 231309Z 25021KT 06/M04 A2987 RMK A01 T00561044  RH  048%=      5-min Rain = 0
KSW1 231310Z 25020G25KT 06/M04 A2987 RMK A01 T00561044  RH  049%=      5-min Rain = 0
KSW1 231311Z 25024KT 06/M05 A2987 RMK A01 T00561045  RH  048%=      5-min Rain = 0
KSW1 231312Z 25021KT 06/M05 A2987 RMK A01 T00581045  RH  048%=      5-min Rain = 0
KSW1 231313Z 25025G32KT 06/M05 A2987 RMK A01 T00581045  RH  048%=      5-min Rain = 0
KSW1 231314Z 25024KT 06/M05 A2987 RMK A01 T00581046  RH  047%=      5-min Rain = 0
KSW1 231315Z 26023G29KT 06/M05 A2987 RMK A01 T00591046  RH  047%=      5-min Rain = 0
KSW1 231316Z 25023KT 06/M05 A2987 RMK A01 T00591046  RH  047%=      5-min Rain = 0
KSW1 231317Z 25020KT 06/M05 A2987 RMK A01 T00581045  RH  047%=      5-min Rain = 0
KSW1 231318Z 25023G28KT 06/M04 A2987 RMK A01 T00571044  RH  048%=      5-min Rain = 0
KSW1 231319Z 25023KT 06/M05 A2987 RMK A01 T00571045  RH  048%=      5-min Rain = 0
KSW1 231320Z 25021G27KT 06/M04 A2987 RMK A01 T00571044  RH  048%=      5-min Rain = 0
KSW1 231321Z 25022G27KT 06/M04 A2987 RMK A01 T00571044  RH  048%=      5-min Rain = 0
KSW1 231322Z 25021G26KT 06/M04 A2987 RMK A01 T00571044  RH  048%=      5-min Rain = 0
KSW1 231323Z 25021KT 06/M05 A2987 RMK A01 T00571045  RH  048%=      5-min Rain = 0
KSW1 231324Z 25020KT 06/M04 A2987 RMK A01 T00571044  RH  048%=      5-min Rain = 0
KSW1 231325Z 25023G30KT 06/M04 A2987 RMK A01 T00561044  RH  048%=      5-min Rain = 0
KSW1 231326Z 25021G28KT 06/M05 A2987 RMK A01 T00561045  RH  048%=      5-min Rain = 0
KSW1 231327Z 25021G26KT 06/M05 A2987 RMK A01 T00571045  RH  048%=      5-min Rain = 0
KSW1 231328Z 25020KT 06/M04 A2987 RMK A01 T00561044  RH  048%=      5-min Rain = 0
KSW1 231329Z 25019KT 06/M04 A2987 RMK A01 T00561044  RH  049%=      5-min Rain = 0
KSW1 231330Z 25020G25KT 06/M04 A2987 RMK A01 T00551044  RH  049%=      5-min Rain = 0
KSW1 231331Z 25020G26KT 06/M04 A2987 RMK A01 T00551044  RH  049%=      5-min Rain = 0
KSW1 231332Z 25019G24KT 06/M05 A2987 RMK A01 T00551045  RH  049%=      5-min Rain = 0
KSW1 231333Z 25020KT 06/M04 A2987 RMK A01 T00551044  RH  049%=      5-min Rain = 0
KSW1 231334Z 25017G22KT 06/M04 A2987 RMK A01 T00551044  RH  049%=      5-min Rain = 0
KSW1 231335Z 25018KT 06/M04 A2987 RMK A01 T00551043  RH  049%=      5-min Rain = 0
KSW1 231336Z 25019KT 05/M04 A2987 RMK A01 T00541043  RH  050%=      5-min Rain = 0
KSW1 231337Z 25019G24KT 05/M04 A2987 RMK A01 T00541043  RH  049%=      5-min Rain = 0
KSW1 231338Z 25019G24KT 05/M04 A2987 RMK A01 T00541044  RH  049%=      5-min Rain = 0
KSW1 231339Z 25020KT 05/M04 A2986 RMK A01 T00541044  RH  049%=      5-min Rain = 0
KSW1 231340Z 25020G28KT 05/M05 A2986 RMK A01 T00541045  RH  049%=      5-min Rain = 0
KSW1 231341Z 25019KT 06/M04 A2987 RMK A01 T00551044  RH  049%=      5-min Rain = 0
KSW1 231342Z 25020KT 06/M04 A2987 RMK A01 T00551043  RH  049%=      5-min Rain = 0
KSW1 231343Z 25020G26KT 06/M04 A2986 RMK A01 T00551044  RH  049%=      5-min Rain = 0
KSW1 231344Z 25017KT 06/M04 A2987 RMK A01 T00551044  RH  049%=      5-min Rain = 0
KSW1 231345Z 25020KT 06/M04 A2987 RMK A01 T00551043  RH  049%=      5-min Rain = 0
KSW1 231346Z 25019KT 06/M04 A2986 RMK A01 T00551043  RH  049%=      5-min Rain = 0
KSW1 231347Z 25018KT 06/M04 A2986 RMK A01 T00551043  RH  049%=      5-min Rain = 0
KSW1 231348Z 25018G24KT 06/M04 A2986 RMK A01 T00551043  RH  049%=      5-min Rain = 0
KSW1 231349Z 25017G23KT 06/M04 A2987 RMK A01 T00551042  RH  050%=      5-min Rain = 0
KSW1 231350Z 25019KT 06/M04 A2986 RMK A01 T00551042  RH  050%=      5-min Rain = 0
KSW1 231351Z 25022KT 05/M04 A2986 RMK A01 T00541044  RH  049%=      5-min Rain = 0
KSW1 231352Z 25019G27KT 06/M04 A2987 RMK A01 T00561044  RH  049%=      5-min Rain = 0
KSW1 231353Z 25021KT 06/M04 A2987 RMK A01 T00561043  RH  049%=      5-min Rain = 0
KSW1 231354Z 25023KT 06/M05 A2987 RMK A01 T00561045  RH  048%=      5-min Rain = 0
KSW1 231355Z 25023G28KT 06/M05 A2987 RMK A01 T00571045  RH  048%=      5-min Rain = 0
KSW1 231356Z 25020G25KT 06/M05 A2987 RMK A01 T00571045  RH  048%=      5-min Rain = 0
KSW1 231357Z 25018G23KT 06/M04 A2987 RMK A01 T00571044  RH  048%=      5-min Rain = 0
KSW1 231358Z 25021KT 06/M04 A2986 RMK A01 T00571044  RH  048%=      5-min Rain = 0
KSW1 231359Z 25024G29KT 06/M05 A2986 RMK A01 T00571045  RH  048%=      5-min Rain = 0
KSW1 231400Z 25019G24KT 06/M05 A2986 RMK A01 T00581046  RH  047%=      5-min Rain = 0
KSW1 231401Z 25022KT 06/M05 A2986 RMK A01 T00581045  RH  048%=      5-min Rain = 0
KSW1 231402Z 25022KT 06/M05 A2986 RMK A01 T00581045  RH  048%=      5-min Rain = 0
KSW1 231403Z 25023G28KT 06/M05 A2986 RMK A01 T00581045  RH  047%=      5-min Rain = 0
KSW1 231404Z 25023KT 06/M05 A2986 RMK A01 T00591046  RH  047%=      5-min Rain = 0
KSW1 231405Z 25019KT 06/M05 A2986 RMK A01 T00591045  RH  047%=      5-min Rain = 0
KSW1 231406Z 25021G27KT 06/M05 A2986 RMK A01 T00591045  RH  047%=      5-min Rain = 0
KSW1 231407Z 26022KT 06/M05 A2986 RMK A01 T00601045  RH  047%=      5-min Rain = 0
KSW1 231408Z 26021KT 06/M05 A2986 RMK A01 T00601045  RH  047%=      5-min Rain = 0
KSW1 231409Z 25023G29KT 06/M05 A2986 RMK A01 T00611045  RH  047%=      5-min Rain = 0
KSW1 231410Z 25024G34KT 06/M05 A2986 RMK A01 T00611046  RH  046%=      5-min Rain = 0
KSW1 231411Z 25027KT 06/M05 A2986 RMK A01 T00611046  RH  046%=      5-min Rain = 0
KSW1 231412Z 26021G27KT 06/M05 A2986 RMK A01 T00621047  RH  046%=      5-min Rain = 0
KSW1 231413Z 25019KT 06/M04 A2987 RMK A01 T00621044  RH  046%=      5-min Rain = 0
KSW1 231414Z 25020KT 06/M04 A2986 RMK A01 T00621043  RH  047%=      5-min Rain = 0
KSW1 231415Z 26020G25KT 06/M04 A2986 RMK A01 T00621043  RH  047%=      5-min Rain = 0
KSW1 231416Z 26022G27KT 06/M04 A2986 RMK A01 T00631043  RH  047%=      5-min Rain = 0
KSW1 231417Z 26024KT 06/M05 A2986 RMK A01 T00631045  RH  046%=      5-min Rain = 0
KSW1 231418Z 26022G27KT 06/M04 A2986 RMK A01 T00631044  RH  046%=      5-min Rain = 0
KSW1 231419Z 26023G28KT 06/M04 A2986 RMK A01 T00641044  RH  046%=      5-min Rain = 0
KSW1 231420Z 25022KT 06/M04 A2986 RMK A01 T00641043  RH  046%=      5-min Rain = 0
KSW1 231421Z 26024G30KT 06/M04 A2986 RMK A01 T00641044  RH  046%=      5-min Rain = 0
KSW1 231422Z 25025G31KT 07/M04 A2986 RMK A01 T00651044  RH  046%=      5-min Rain = 0
KSW1 231423Z 25026G33KT 07/M05 A2986 RMK A01 T00651045  RH  045%=      5-min Rain = 0
KSW1 231424Z 25023G28KT 07/M04 A2987 RMK A01 T00661043  RH  046%=      5-min Rain = 0
KSW1 231425Z 25026G32KT 07/M05 A2986 RMK A01 T00651045  RH  045%=      5-min Rain = 0
KSW1 231426Z 25022KT 07/M04 A2986 RMK A01 T00661044  RH  046%=      5-min Rain = 0
KSW1 231427Z 25024G29KT 07/M04 A2986 RMK A01 T00661043  RH  046%=      5-min Rain = 0
KSW1 231428Z 25028KT 07/M04 A2986 RMK A01 T00661044  RH  045%=      5-min Rain = 0
KSW1 231429Z 25024G31KT 07/M05 A2986 RMK A01 T00661045  RH  045%=      5-min Rain = 0
KSW1 231430Z 26023G34KT 07/M04 A2986 RMK A01 T00671043  RH  045%=      5-min Rain = 0
KSW1 231431Z 26025G33KT 07/M04 A2986 RMK A01 T00671044  RH  045%=      5-min Rain = 0
KSW1 231432Z 25026G32KT 07/M04 A2986 RMK A01 T00681044  RH  045%=      5-min Rain = 0
KSW1 231433Z 26025KT 07/M04 A2986 RMK A01 T00681043  RH  045%=      5-min Rain = 0
KSW1 231434Z 26024G31KT 07/M04 A2986 RMK A01 T00681042  RH  045%=      5-min Rain = 0
KSW1 231435Z 25027G33KT 07/M04 A2986 RMK A01 T00681043  RH  045%=      5-min Rain = 0
KSW1 231436Z 26027G33KT 07/M04 A2986 RMK A01 T00691044  RH  044%=      5-min Rain = 0
KSW1 231437Z 26028G34KT 07/M05 A2987 RMK A01 T00691045  RH  044%=      5-min Rain = 0
KSW1 231438Z 26024G34KT 07/M05 A2987 RMK A01 T00701045  RH  044%=      5-min Rain = 0
KSW1 231439Z 26023G28KT 07/M04 A2987 RMK A01 T00701042  RH  045%=      5-min Rain = 0
KSW1 231440Z 25025G33KT 07/M04 A2987 RMK A01 T00701043  RH  044%=      5-min Rain = 0
KSW1 231441Z 26025G32KT 07/M04 A2987 RMK A01 T00701044  RH  044%=      5-min Rain = 0
KSW1 231442Z 25029G36KT 07/M05 A2987 RMK A01 T00701045  RH  044%=      5-min Rain = 0
KSW1 231443Z 26023G31KT 07/M04 A2988 RMK A01 T00701044  RH  044%=      5-min Rain = 0
KSW1 231444Z 26022G29KT 07/M04 A2988 RMK A01 T00711041  RH  045%=      5-min Rain = 0
KSW1 231445Z 26024G29KT 07/M04 A2988 RMK A01 T00721041  RH  044%=      5-min Rain = 0
KSW1 231446Z 26026G32KT 07/M04 A2988 RMK A01 T00721043  RH  044%=      5-min Rain = 0
KSW1 231447Z 26022G30KT 07/M04 A2988 RMK A01 T00721043  RH  044%=      5-min Rain = 0
KSW1 231448Z 26022G30KT 07/M04 A2988 RMK A01 T00721042  RH  044%=      5-min Rain = 0
KSW1 231449Z 26024G31KT 07/M04 A2988 RMK A01 T00721042  RH  044%=      5-min Rain = 0
KSW1 231450Z 26025G31KT 07/M04 A2988 RMK A01 T00731044  RH  043%=      5-min Rain = 0
KSW1 231451Z 26020KT 07/M04 A2989 RMK A01 T00731043  RH  044%=      5-min Rain = 0
KSW1 231452Z 26024G30KT 07/M04 A2989 RMK A01 T00731041  RH  044%=      5-min Rain = 0
KSW1 231453Z 26022G29KT 07/M04 A2989 RMK A01 T00741042  RH  044%=      5-min Rain = 0
KSW1 231454Z 26029G34KT 08/M04 A2988 RMK A01 T00751044  RH  043%=      5-min Rain = 0
KSW1 231455Z 26023G29KT 07/M05 A2989 RMK A01 T00741045  RH  042%=      5-min Rain = 0
KSW1 231456Z 26022G31KT 07/M04 A2989 RMK A01 T00741043  RH  043%=      5-min Rain = 0
KSW1 231457Z 26025G30KT 08/M04 A2988 RMK A01 T00751043  RH  043%=      5-min Rain = 0
KSW1 231458Z 26031G37KT 08/M05 A2988 RMK A01 T00751047  RH  042%=      5-min Rain = 0
KSW1 231459Z 26026KT 08/M05 A2988 RMK A01 T00751048  RH  041%=      5-min Rain = 0
KSW1 231500Z 26024G30KT 08/M05 A2988 RMK A01 T00751047  RH  042%=      5-min Rain = 0
KSW1 231501Z 25023G30KT 08/M04 A2988 RMK A01 T00751044  RH  043%=      5-min Rain = 0
KSW1 231502Z 25026KT 08/M04 A2988 RMK A01 T00771044  RH  042%=      5-min Rain = 0
KSW1 231503Z 26026G32KT 08/M05 A2988 RMK A01 T00771046  RH  041%=      5-min Rain = 0
KSW1 231504Z 26024G30KT 08/M05 A2989 RMK A01 T00771047  RH  041%=      5-min Rain = 0
KSW1 231505Z 26025G32KT 08/M05 A2988 RMK A01 T00771047  RH  041%=      5-min Rain = 0
KSW1 231506Z 26022G28KT 08/M04 A2988 RMK A01 T00771044  RH  042%=      5-min Rain = 0
KSW1 231507Z 26020G26KT 08/M04 A2988 RMK A01 T00781044  RH  042%=      5-min Rain = 0
KSW1 231508Z 26019KT 08/M04 A2988 RMK A01 T00791044  RH  042%=      5-min Rain = 0
KSW1 231509Z 26019G28KT 08/M05 A2989 RMK A01 T00791045  RH  041%=      5-min Rain = 0
KSW1 231510Z 26020G25KT 08/M04 A2988 RMK A01 T00801044  RH  041%=      5-min Rain = 0
KSW1 231511Z 26021G28KT 08/M05 A2988 RMK A01 T00811045  RH  041%=      5-min Rain = 0
KSW1 231512Z 26024G29KT 08/M05 A2988 RMK A01 T00801047  RH  040%=      5-min Rain = 0
KSW1 231513Z 26025G34KT 08/M05 A2988 RMK A01 T00811047  RH  040%=      5-min Rain = 0
KSW1 231514Z 25025G34KT 08/M05 A2988 RMK A01 T00801048  RH  040%=      5-min Rain = 0
KSW1 231515Z 25027G35KT 08/M05 A2988 RMK A01 T00801048  RH  040%=      5-min Rain = 0
KSW1 231516Z 26025G30KT 08/M05 A2988 RMK A01 T00801048  RH  040%=      5-min Rain = 0
KSW1 231517Z 26025G31KT 08/M05 A2989 RMK A01 T00801047  RH  040%=      5-min Rain = 0
KSW1 231518Z 25024G31KT 08/M05 A2989 RMK A01 T00801048  RH  040%=      5-min Rain = 0
KSW1 231519Z 26028G34KT 08/M05 A2989 RMK A01 T00801049  RH  040%=      5-min Rain = 0
KSW1 231520Z 26023G30KT 08/M05 A2989 RMK A01 T00811048  RH  040%=      5-min Rain = 0
KSW1 231521Z 26025G30KT 08/M05 A2989 RMK A01 T00821046  RH  040%=      5-min Rain = 0
KSW1 231522Z 25022G27KT 08/M05 A2989 RMK A01 T00821047  RH  040%=      5-min Rain = 0
KSW1 231523Z 25024G30KT 08/M05 A2989 RMK A01 T00831047  RH  040%=      5-min Rain = 0
KSW1 231524Z 25030G37KT 08/M05 A2989 RMK A01 T00831049  RH  039%=      5-min Rain = 0
KSW1 231525Z 26023KT 08/M05 A2989 RMK A01 T00831049  RH  039%=      5-min Rain = 0
KSW1 231526Z 26025KT 08/M05 A2989 RMK A01 T00841047  RH  039%=      5-min Rain = 0
KSW1 231527Z 26028G34KT 09/M05 A2989 RMK A01 T00851050  RH  038%=      5-min Rain = 0
KSW1 231528Z 26027G33KT 09/M05 A2989 RMK A01 T00851050  RH  038%=      5-min Rain = 0
KSW1 231529Z 27028G34KT 09/M05 A2989 RMK A01 T00851052  RH  038%=      5-min Rain = 0
KSW1 231530Z 27023G28KT 09/M05 A2989 RMK A01 T00851053  RH  037%=      5-min Rain = 0
KSW1 231531Z 26017G22KT 09/M05 A2989 RMK A01 T00861048  RH  038%=      5-min Rain = 0
KSW1 231532Z 26018G23KT 09/M04 A2989 RMK A01 T00891042  RH  039%=      5-min Rain = 0
KSW1 231533Z 26022G37KT 09/M04 A2989 RMK A01 T00911042  RH  039%=      5-min Rain = 0
KSW1 231534Z 26028KT 09/M05 A2989 RMK A01 T00911049  RH  037%=      5-min Rain = 0
KSW1 231535Z 26023G34KT 09/M05 A2989 RMK A01 T00891051  RH  037%=      5-min Rain = 0
KSW1 231536Z 26027G34KT 09/M05 A2989 RMK A01 T00891050  RH  037%=      5-min Rain = 0
KSW1 231537Z 26029G34KT 09/M05 A2989 RMK A01 T00891053  RH  036%=      5-min Rain = 0
KSW1 231538Z 26028G37KT 09/M05 A299 RMK A01 T00881052  RH  037%=      5-min Rain = 0
KSW1 231539Z 26027G33KT 09/M06 A2989 RMK A01 T00881055  RH  036%=      5-min Rain = 0
KSW1 231540Z 26028G35KT 09/M05 A2989 RMK A01 T00881053  RH  036%=      5-min Rain = 0
KSW1 231541Z 26027G33KT 09/M05 A2989 RMK A01 T00881053  RH  036%=      5-min Rain = 0
KSW1 231542Z 26027G35KT 09/M05 A2989 RMK A01 T00881053  RH  036%=      5-min Rain = 0
KSW1 231543Z 26027G32KT 09/M05 A2989 RMK A01 T00891053  RH  036%=      5-min Rain = 0
KSW1 231544Z 26026G33KT 09/M05 A2989 RMK A01 T00901054  RH  036%=      5-min Rain = 0
KSW1 231545Z 26029KT 09/M05 A2989 RMK A01 T00911054  RH  035%=      5-min Rain = 0
KSW1 231546Z 26028G33KT 09/M06 A2989 RMK A01 T00901055  RH  035%=      5-min Rain = 0
KSW1 231547Z 26027G33KT 09/M05 A2989 RMK A01 T00901053  RH  036%=      5-min Rain = 0
KSW1 231548Z 26024KT 09/M05 A299 RMK A01 T00911054  RH  036%=      5-min Rain = 0
KSW1 231549Z 26024KT 09/M05 A299 RMK A01 T00931049  RH  036%=      5-min Rain = 0
KSW1 231550Z 26021G29KT 09/M05 A299 RMK A01 T00941051  RH  035%=      5-min Rain = 0
KSW1 231551Z 26023G31KT 10/M05 A2989 RMK A01 T00961051  RH  035%=      5-min Rain = 0
KSW1 231552Z 25023G30KT 10/M05 A2989 RMK A01 T00951054  RH  034%=      5-min Rain = 0
KSW1 231553Z 26026G32KT 10/M05 A2989 RMK A01 T00951053  RH  035%=      5-min Rain = 0
KSW1 231554Z 25025G33KT 10/M05 A2989 RMK A01 T00951052  RH  035%=      5-min Rain = 0
KSW1 231555Z 25027G35KT 10/M06 A2989 RMK A01 T00951056  RH  034%=      5-min Rain = 0
KSW1 231556Z 25028G39KT 10/M06 A2989 RMK A01 T00951058  RH  033%=      5-min Rain = 0
KSW1 231557Z 25030G38KT 09/M06 A2989 RMK A01 T00941060  RH  033%=      5-min Rain = 0
KSW1 231558Z 25028G34KT 09/M06 A2989 RMK A01 T00931057  RH  034%=      5-min Rain = 0
KSW1 231559Z 25025KT 09/M06 A2989 RMK A01 T00941057  RH  034%=      5-min Rain = 0
KSW1 231600Z 25026G35KT 10/M06 A2989 RMK A01 T00951058  RH  034%=      5-min Rain = 0
KSW1 231601Z 25029G34KT 10/M06 A2988 RMK A01 T00951058  RH  033%=      5-min Rain = 0
KSW1 231602Z 26024G33KT 10/M06 A2989 RMK A01 T00951059  RH  033%=      5-min Rain = 0
KSW1 231603Z 25026G34KT 10/M06 A2989 RMK A01 T00961055  RH  034%=      5-min Rain = 0
KSW1 231604Z 25025G31KT 10/M06 A2989 RMK A01 T00971057  RH  033%=      5-min Rain = 0
KSW1 231605Z 25028G35KT 10/M06 A2989 RMK A01 T00981058  RH  033%=      5-min Rain = 0
KSW1 231606Z 26028KT 10/M06 A2989 RMK A01 T00981060  RH  032%=      5-min Rain = 0
KSW1 231607Z 26026KT 10/M06 A2989 RMK A01 T00971060  RH  032%=      5-min Rain = 0
KSW1 231608Z 25029G34KT 10/M06 A2989 RMK A01 T00971059  RH  033%=      5-min Rain = 0
KSW1 231609Z 26025KT 10/M06 A2989 RMK A01 T00971057  RH  033%=      5-min Rain = 0
KSW1 231610Z 26023G29KT 10/M06 A299 RMK A01 T00981055  RH  034%=      5-min Rain = 0
KSW1 231611Z 26023G31KT 10/M05 A299 RMK A01 T01001051  RH  034%=      5-min Rain = 0
KSW1 231612Z 26028G33KT 10/M06 A299 RMK A01 T01021057  RH  032%=      5-min Rain = 0
KSW1 231613Z 26025G31KT 10/M06 A299 RMK A01 T01001060  RH  032%=      5-min Rain = 0
KSW1 231614Z 26028KT 10/M06 A299 RMK A01 T01001058  RH  032%=      5-min Rain = 0
KSW1 231615Z 26025G30KT 10/M06 A299 RMK A01 T01001059  RH  032%=      5-min Rain = 0
KSW1 231616Z 26021G31KT 10/M06 A299 RMK A01 T01001055  RH  033%=      5-min Rain = 0
KSW1 231617Z 25023G28KT 10/M06 A299 RMK A01 T01021055  RH  033%=      5-min Rain = 0
KSW1 231618Z 26026G37KT 10/M05 A299 RMK A01 T01031054  RH  033%=      5-min Rain = 0
KSW1 231619Z 26028G35KT 10/M06 A299 RMK A01 T01031061  RH  031%=      5-min Rain = 0
KSW1 231620Z 27025G30KT 10/M06 A299 RMK A01 T01011060  RH  032%=      5-min Rain = 0
KSW1 231621Z 26027G33KT 10/M06 A299 RMK A01 T01011059  RH  032%=      5-min Rain = 0
KSW1 231622Z 25023G28KT 10/M06 A2991 RMK A01 T01011058  RH  032%=      5-min Rain = 0
KSW1 231623Z 26025G34KT 10/M06 A2991 RMK A01 T01031056  RH  032%=      5-min Rain = 0
KSW1 231624Z 27027G34KT 10/M06 A2991 RMK A01 T01031060  RH  031%=      5-min Rain = 0
KSW1 231625Z 27028G33KT 10/M06 A2991 RMK A01 T01031061  RH  031%=      5-min Rain = 0
KSW1 231626Z 26026G32KT 10/M06 A2991 RMK A01 T01021059  RH  032%=      5-min Rain = 0
KSW1 231627Z 27023G29KT 10/M06 A2991 RMK A01 T01011059  RH  032%=      5-min Rain = 0
KSW1 231628Z 26025G31KT 10/M06 A2991 RMK A01 T01041056  RH  032%=      5-min Rain = 0
KSW1 231629Z 26029G37KT 11/M06 A2991 RMK A01 T01051059  RH  031%=      5-min Rain = 0
KSW1 231630Z 27029G34KT 10/M06 A2991 RMK A01 T01041061  RH  031%=      5-min Rain = 0
KSW1 231631Z 26026G32KT 10/M06 A2991 RMK A01 T01031062  RH  031%=      5-min Rain = 0
KSW1 231632Z 27024G34KT 10/M06 A2991 RMK A01 T01041059  RH  031%=      5-min Rain = 0
KSW1 231633Z 27025G34KT 11/M06 A2991 RMK A01 T01051061  RH  031%=      5-min Rain = 0
KSW1 231634Z 26025G34KT 11/M06 A2991 RMK A01 T01061057  RH  031%=      5-min Rain = 0
KSW1 231635Z 26028G36KT 11/M06 A2991 RMK A01 T01061061  RH  030%=      5-min Rain = 0
KSW1 231636Z 26028G36KT 11/M06 A2991 RMK A01 T01051061  RH  030%=      5-min Rain = 0
KSW1 231637Z 26026KT 11/M06 A2991 RMK A01 T01051064  RH  030%=      5-min Rain = 0
KSW1 231638Z 26025G31KT 10/M06 A2991 RMK A01 T01041063  RH  030%=      5-min Rain = 0
KSW1 231639Z 26030G35KT 11/M06 A2991 RMK A01 T01051062  RH  030%=      5-min Rain = 0
KSW1 231640Z 26027G34KT 11/M07 A2991 RMK A01 T01051065  RH  030%=      5-min Rain = 0
KSW1 231641Z 26025KT 11/M06 A2991 RMK A01 T01051063  RH  030%=      5-min Rain = 0
KSW1 231642Z 26025G31KT 11/M06 A2991 RMK A01 T01061060  RH  031%=      5-min Rain = 0
KSW1 231643Z 26023G28KT 11/M06 A2991 RMK A01 T01071058  RH  031%=      5-min Rain = 0
KSW1 231644Z 25024G30KT 11/M06 A2992 RMK A01 T01091056  RH  031%=      5-min Rain = 0
KSW1 231645Z 25024G31KT 11/M06 A2992 RMK A01 T01101055  RH  031%=      5-min Rain = 0
KSW1 231646Z 26026G31KT 11/M06 A2992 RMK A01 T01111057  RH  030%=      5-min Rain = 0
KSW1 231647Z 27025G33KT 11/M06 A2992 RMK A01 T01111060  RH  030%=      5-min Rain = 0
KSW1 231648Z 27028G34KT 11/M06 A2992 RMK A01 T01101062  RH  029%=      5-min Rain = 0
KSW1 231649Z 26026G33KT 11/M06 A2991 RMK A01 T01101062  RH  029%=      5-min Rain = 0
KSW1 231650Z 27023G30KT 11/M06 A2992 RMK A01 T01101062  RH  029%=      5-min Rain = 0
KSW1 231651Z 26024G31KT 11/M06 A2992 RMK A01 T01111062  RH  029%=      5-min Rain = 0
KSW1 231652Z 26024G30KT 11/M06 A2992 RMK A01 T01121059  RH  030%=      5-min Rain = 0
KSW1 231653Z 26023G30KT 11/M06 A2991 RMK A01 T01141058  RH  029%=      5-min Rain = 0
KSW1 231654Z 26025G34KT 12/M06 A2991 RMK A01 T01151057  RH  029%=      5-min Rain = 0
KSW1 231655Z 26025G32KT 12/M06 A2991 RMK A01 T01161060  RH  029%=      5-min Rain = 0
KSW1 231656Z 27025G31KT 11/M06 A2991 RMK A01 T01141062  RH  028%=      5-min Rain = 0
KSW1 231657Z 27024G30KT 11/M06 A2991 RMK A01 T01121061  RH  029%=      5-min Rain = 0
KSW1 231658Z 26024G31KT 11/M06 A2991 RMK A01 T01121062  RH  029%=      5-min Rain = 0
KSW1 231659Z 26025G33KT 11/M06 A2992 RMK A01 T01141061  RH  029%=      5-min Rain = 0
KSW1 231700Z 25029G36KT 12/M06 A2991 RMK A01 T01151062  RH  028%=      5-min Rain = 0
KSW1 231701Z 25027G38KT 11/M06 A2992 RMK A01 T01131064  RH  028%=      5-min Rain = 0
KSW1 231702Z 26030G37KT 11/M06 A2991 RMK A01 T01131064  RH  029%=      5-min Rain = 0
KSW1 231703Z 26029G36KT 11/M07 A2991 RMK A01 T01111068  RH  028%=      5-min Rain = 0
KSW1 231704Z 26028G33KT 11/M07 A2992 RMK A01 T01111067  RH  028%=      5-min Rain = 0
KSW1 231705Z 25022G32KT 11/M06 A2992 RMK A01 T01121063  RH  029%=      5-min Rain = 0
KSW1 231706Z 25023KT 12/M06 A2992 RMK A01 T01161061  RH  029%=      5-min Rain = 0
KSW1 231707Z 25026G31KT 12/M06 A2992 RMK A01 T01161063  RH  028%=      5-min Rain = 0
KSW1 231708Z 25026G32KT 12/M06 A2992 RMK A01 T01151061  RH  029%=      5-min Rain = 0
KSW1 231709Z 26029KT 12/M06 A2992 RMK A01 T01151061  RH  029%=      5-min Rain = 0
KSW1 231710Z 25028KT 12/M06 A2992 RMK A01 T01151062  RH  028%=      5-min Rain = 0
KSW1 231711Z 26025G30KT 12/M06 A2992 RMK A01 T01151063  RH  028%=      5-min Rain = 0
KSW1 231712Z 25025G31KT 12/M06 A2992 RMK A01 T01161062  RH  028%=      5-min Rain = 0
KSW1 231713Z 25027KT 12/M06 A2992 RMK A01 T01171062  RH  028%=      5-min Rain = 0
KSW1 231714Z 26023G28KT 12/M06 A2992 RMK A01 T01171063  RH  028%=      5-min Rain = 0
KSW1 231715Z 26024G30KT 12/M06 A2992 RMK A01 T01181063  RH  028%=      5-min Rain = 0
KSW1 231716Z 26024G33KT 12/M06 A2992 RMK A01 T01191060  RH  028%=      5-min Rain = 0
KSW1 231717Z 25027G32KT 12/M06 A2992 RMK A01 T01191062  RH  028%=      5-min Rain = 0
KSW1 231718Z 26024G31KT 12/M06 A2992 RMK A01 T01181060  RH  028%=      5-min Rain = 0
KSW1 231719Z 25025G32KT 12/M06 A2992 RMK A01 T01191061  RH  028%=      5-min Rain = 0
KSW1 231720Z 26026G31KT 12/M07 A2993 RMK A01 T01191065  RH  027%=      5-min Rain = 0
KSW1 231721Z 26026G32KT 12/M07 A2993 RMK A01 T01181065  RH  027%=      5-min Rain = 0
KSW1 231722Z 26023G29KT 12/M06 A2993 RMK A01 T01181061  RH  028%=      5-min Rain = 0
KSW1 231723Z 25025G31KT 12/M06 A2993 RMK A01 T01191060  RH  028%=      5-min Rain = 0
KSW1 231724Z 25026G32KT 12/M06 A2993 RMK A01 T01201060  RH  028%=      5-min Rain = 0
KSW1 231725Z 25026G32KT 12/M06 A2993 RMK A01 T01201061  RH  028%=      5-min Rain = 0
KSW1 231726Z 25023G30KT 12/M06 A2993 RMK A01 T01201061  RH  028%=      5-min Rain = 0
KSW1 231727Z 25025G30KT 12/M06 A2993 RMK A01 T01221059  RH  028%=      5-min Rain = 0
KSW1 231728Z 26027G34KT 12/M06 A2993 RMK A01 T01211064  RH  027%=      5-min Rain = 0
KSW1 231729Z 26026KT 12/M06 A2993 RMK A01 T01211064  RH  027%=      5-min Rain = 0
KSW1 231730Z 26025G32KT 12/M06 A2993 RMK A01 T01201064  RH  027%=      5-min Rain = 0
KSW1 231731Z 26025G31KT 12/M06 A2993 RMK A01 T01191063  RH  027%=      5-min Rain = 0
KSW1 231732Z 26023G30KT 12/M06 A2993 RMK A01 T01191063  RH  027%=      5-min Rain = 0
KSW1 231733Z 27025G32KT 12/M06 A2993 RMK A01 T01201062  RH  027%=      5-min Rain = 0
KSW1 231734Z 26025KT 12/M06 A2993 RMK A01 T01201063  RH  027%=      5-min Rain = 0
KSW1 231735Z 25026G32KT 12/M06 A2993 RMK A01 T01201061  RH  028%=      5-min Rain = 0
KSW1 231736Z 26024G30KT 12/M06 A2993 RMK A01 T01211062  RH  027%=      5-min Rain = 0
KSW1 231737Z 26026G31KT 12/M06 A2993 RMK A01 T01221061  RH  027%=      5-min Rain = 0
KSW1 231738Z 25024G30KT 12/M06 A2993 RMK A01 T01211062  RH  027%=      5-min Rain = 0
KSW1 231739Z 25025G30KT 12/M06 A2993 RMK A01 T01221060  RH  028%=      5-min Rain = 0
KSW1 231740Z 25030KT 12/M06 A2993 RMK A01 T01231061  RH  027%=      5-min Rain = 0
KSW1 231741Z 25028G33KT 12/M06 A2993 RMK A01 T01221064  RH  027%=      5-min Rain = 0
KSW1 231742Z 25024G31KT 12/M06 A2993 RMK A01 T01201064  RH  027%=      5-min Rain = 0
KSW1 231743Z 26024G29KT 12/M06 A2993 RMK A01 T01221061  RH  027%=      5-min Rain = 0
KSW1 231744Z 26024KT 12/M06 A2993 RMK A01 T01241063  RH  027%=      5-min Rain = 0
KSW1 231745Z 26022KT 13/M06 A2993 RMK A01 T01251063  RH  026%=      5-min Rain = 0
KSW1 231746Z 26020G25KT 13/M06 A2993 RMK A01 T01281059  RH  027%=      5-min Rain = 0
KSW1 231747Z 25021G27KT 13/M06 A2993 RMK A01 T01311056  RH  027%=      5-min Rain = 0
KSW1 231748Z 26025KT 13/M06 A2993 RMK A01 T01321058  RH  026%=      5-min Rain = 0
KSW1 231749Z 26025G32KT 13/M06 A2993 RMK A01 T01291061  RH  026%=      5-min Rain = 0
KSW1 231750Z 27025G31KT 13/M06 A2992 RMK A01 T01271064  RH  026%=      5-min Rain = 0
KSW1 231751Z 26025KT 12/M06 A2993 RMK A01 T01241064  RH  026%=      5-min Rain = 0
KSW1 231752Z 27022KT 12/M06 A2993 RMK A01 T01241062  RH  027%=      5-min Rain = 0
KSW1 231753Z 26022G33KT 13/M06 A2993 RMK A01 T01251059  RH  027%=      5-min Rain = 0
KSW1 231754Z 25024G30KT 13/M06 A2993 RMK A01 T01261061  RH  027%=      5-min Rain = 0
KSW1 231755Z 25023G29KT 13/M06 A2993 RMK A01 T01251060  RH  027%=      5-min Rain = 0
KSW1 231756Z 25026G33KT 13/M06 A2992 RMK A01 T01271059  RH  027%=      5-min Rain = 0
KSW1 231757Z 26025G31KT 13/M06 A2992 RMK A01 T01291063  RH  026%=      5-min Rain = 0
KSW1 231758Z 26027G33KT 13/M06 A2992 RMK A01 T01281062  RH  026%=      5-min Rain = 0
KSW1 231759Z 27024KT 13/M06 A2992 RMK A01 T01271064  RH  026%=      5-min Rain = 0
KSW1 231800Z 27023G29KT 13/M06 A2992 RMK A01 T01271063  RH  026%=      5-min Rain = 0
KSW1 231801Z 26024G30KT 13/M06 A2992 RMK A01 T01281062  RH  026%=      5-min Rain = 0
KSW1 231802Z 25026G32KT 13/M06 A2992 RMK A01 T01281063  RH  026%=      5-min Rain = 0
KSW1 231803Z 25025G31KT 13/M06 A2992 RMK A01 T01281062  RH  026%=      5-min Rain = 0
KSW1 231804Z 25024G30KT 13/M06 A2993 RMK A01 T01281060  RH  026%=      5-min Rain = 0
KSW1 231805Z 25026G31KT 13/M06 A2993 RMK A01 T01301060  RH  026%=      5-min Rain = 0
KSW1 231806Z 26021G26KT 13/M06 A2993 RMK A01 T01291063  RH  026%=      5-min Rain = 0
KSW1 231807Z 25025G31KT 13/M06 A2993 RMK A01 T01291061  RH  026%=      5-min Rain = 0
KSW1 231808Z 26024G33KT 13/M06 A2993 RMK A01 T01301062  RH  026%=      5-min Rain = 0
KSW1 231809Z 26022G27KT 13/M06 A2993 RMK A01 T01321061  RH  026%=      5-min Rain = 0
KSW1 231810Z 25022G28KT 13/M06 A2992 RMK A01 T01331064  RH  025%=      5-min Rain = 0
KSW1 231811Z 26026G31KT 13/M06 A2992 RMK A01 T01331062  RH  025%=      5-min Rain = 0
KSW1 231812Z 26025G32KT 13/M07 A2992 RMK A01 T01331071  RH  024%=      5-min Rain = 0
KSW1 231813Z 26025G32KT 13/M07 A2992 RMK A01 T01331068  RH  024%=      5-min Rain = 0
KSW1 231814Z 26021G32KT 13/M07 A2992 RMK A01 T01341065  RH  025%=      5-min Rain = 0
KSW1 231815Z 25027G35KT 13/M06 A2992 RMK A01 T01341063  RH  025%=      5-min Rain = 0
KSW1 231816Z 24024G31KT 13/M06 A2992 RMK A01 T01331062  RH  025%=      5-min Rain = 0
KSW1 231817Z 25023G31KT 13/M06 A2992 RMK A01 T01311064  RH  025%=      5-min Rain = 0
KSW1 231818Z 24022G30KT 13/M06 A2992 RMK A01 T01301064  RH  025%=      5-min Rain = 0
KSW1 231819Z 26030KT 13/M07 A2992 RMK A01 T01311066  RH  025%=      5-min Rain = 0
KSW1 231820Z 27026G32KT 13/M07 A2992 RMK A01 T01331074  RH  023%=      5-min Rain = 0
KSW1 231821Z 27024G30KT 13/M07 A2992 RMK A01 T01331074  RH  023%=      5-min Rain = 0
KSW1 231822Z 27026G33KT 13/M07 A2992 RMK A01 T01331073  RH  023%=      5-min Rain = 0
KSW1 231823Z 26021G32KT 14/M07 A2993 RMK A01 T01361065  RH  024%=      5-min Rain = 0
KSW1 231824Z 25031G36KT 14/M07 A2992 RMK A01 T01401065  RH  024%=      5-min Rain = 0
KSW1 231825Z 25031G37KT 14/M07 A2992 RMK A01 T01371070  RH  023%=      5-min Rain = 0
KSW1 231826Z 26025G31KT 14/M07 A2992 RMK A01 T01351071  RH  023%=      5-min Rain = 0
KSW1 231827Z 26026KT 14/M07 A2992 RMK A01 T01361070  RH  023%=      5-min Rain = 0
KSW1 231828Z 27024G30KT 14/M07 A2992 RMK A01 T01351072  RH  023%=      5-min Rain = 0
KSW1 231829Z 26023G28KT 14/M07 A2992 RMK A01 T01371068  RH  023%=      5-min Rain = 0
KSW1 231830Z 27026G33KT 14/M07 A2992 RMK A01 T01381072  RH  023%=      5-min Rain = 0
KSW1 231831Z 27023G32KT 14/M07 A2992 RMK A01 T01371072  RH  023%=      5-min Rain = 0
KSW1 231832Z 27025G31KT 14/M07 A2992 RMK A01 T01391068  RH  023%=      5-min Rain = 0
KSW1 231833Z 27020G25KT 14/M07 A2992 RMK A01 T01381070  RH  023%=      5-min Rain = 0
KSW1 231834Z 26027G35KT 14/M07 A2992 RMK A01 T01401069  RH  023%=      5-min Rain = 0
KSW1 231835Z 26025G32KT 14/M07 A2992 RMK A01 T01401069  RH  023%=      5-min Rain = 0
KSW1 231836Z 26027G34KT 14/M07 A2992 RMK A01 T01401070  RH  023%=      5-min Rain = 0
KSW1 231837Z 26028G34KT 14/M07 A2992 RMK A01 T01411070  RH  023%=      5-min Rain = 0
KSW1 231838Z 26030KT 14/M07 A2992 RMK A01 T01391072  RH  022%=      5-min Rain = 0
KSW1 231839Z 26029G38KT 14/M07 A2992 RMK A01 T01371072  RH  023%=      5-min Rain = 0
KSW1 231840Z 25028G34KT 14/M07 A2992 RMK A01 T01381074  RH  022%=      5-min Rain = 0
KSW1 231841Z 25025G31KT 14/M07 A2992 RMK A01 T01381071  RH  023%=      5-min Rain = 0
KSW1 231842Z 25031KT 14/M07 A2992 RMK A01 T01401074  RH  022%=      5-min Rain = 0
KSW1 231843Z 26025G31KT 14/M08 A2992 RMK A01 T01371075  RH  022%=      5-min Rain = 0
KSW1 231844Z 27022G30KT 14/M07 A2992 RMK A01 T01371071  RH  023%=      5-min Rain = 0
KSW1 231845Z 26022G30KT 14/M07 A2992 RMK A01 T01401070  RH  023%=      5-min Rain = 0
KSW1 231846Z 26022G30KT 14/M07 A2992 RMK A01 T01411069  RH  023%=      5-min Rain = 0
KSW1 231847Z 26024G31KT 15/M07 A2992 RMK A01 T01451067  RH  022%=      5-min Rain = 0
KSW1 231848Z 26028G33KT 15/M07 A2992 RMK A01 T01451072  RH  022%=      5-min Rain = 0
KSW1 231849Z 26028G36KT 14/M08 A2992 RMK A01 T01421076  RH  021%=      5-min Rain = 0
KSW1 231850Z 26026KT 14/M07 A2992 RMK A01 T01401074  RH  022%=      5-min Rain = 0
KSW1 231851Z 26026KT 14/M07 A2992 RMK A01 T01411072  RH  022%=      5-min Rain = 0
KSW1 231852Z 26024G30KT 14/M07 A2992 RMK A01 T01421072  RH  022%=      5-min Rain = 0
KSW1 231853Z 26026KT 14/M07 A2991 RMK A01 T01431072  RH  022%=      5-min Rain = 0
KSW1 231854Z 27025G33KT 14/M07 A2991 RMK A01 T01421071  RH  022%=      5-min Rain = 0
KSW1 231855Z 27026G33KT 14/M07 A2992 RMK A01 T01441070  RH  022%=      5-min Rain = 0
KSW1 231856Z 26029KT 14/M07 A2992 RMK A01 T01441073  RH  022%=      5-min Rain = 0
KSW1 231857Z 26027G33KT 14/M08 A2992 RMK A01 T01421076  RH  021%=      5-min Rain = 0
KSW1 231858Z 26024G29KT 14/M07 A2992 RMK A01 T01421072  RH  022%=      5-min Rain = 0
KSW1 231859Z 26025G32KT 15/M07 A2992 RMK A01 T01451070  RH  022%=      5-min Rain = 0
KSW1 231900Z 26027G32KT 15/M07 A2992 RMK A01 T01461073  RH  021%=      5-min Rain = 0
KSW1 231901Z 26023G30KT 15/M07 A2992 RMK A01 T01461071  RH  022%=      5-min Rain = 0
KSW1 231902Z 26025G30KT 15/M07 A2992 RMK A01 T01471071  RH  022%=      5-min Rain = 0
KSW1 231903Z 26028G36KT 15/M07 A2992 RMK A01 T01461072  RH  021%=      5-min Rain = 0
KSW1 231904Z 26027G32KT 15/M07 A2992 RMK A01 T01451074  RH  021%=      5-min Rain = 0
KSW1 231905Z 26022G29KT 14/M08 A2992 RMK A01 T01441075  RH  021%=      5-min Rain = 0
KSW1 231906Z 27030G37KT 15/M07 A2992 RMK A01 T01451073  RH  021%=      5-min Rain = 0
KSW1 231907Z 27024G31KT 14/M08 A2992 RMK A01 T01441079  RH  021%=      5-min Rain = 0
KSW1 231908Z 27029G43KT 14/M08 A2991 RMK A01 T01431076  RH  021%=      5-min Rain = 0
KSW1 231909Z 27028G34KT 14/M08 A2992 RMK A01 T01441076  RH  021%=      5-min Rain = 0
KSW1 231910Z 27021G26KT 14/M08 A2992 RMK A01 T01441077  RH  021%=      5-min Rain = 0
KSW1 231911Z 27025G31KT 15/M07 A2992 RMK A01 T01451074  RH  021%=      5-min Rain = 0
KSW1 231912Z 28031G42KT 15/M07 A2991 RMK A01 T01471074  RH  021%=      5-min Rain = 0
KSW1 231913Z 28026G32KT 15/M08 A2992 RMK A01 T01461076  RH  021%=      5-min Rain = 0
KSW1 231914Z 28026G33KT 15/M07 A2992 RMK A01 T01471074  RH  021%=      5-min Rain = 0
KSW1 231915Z 28026G34KT 15/M08 A2992 RMK A01 T01471077  RH  021%=      5-min Rain = 0
KSW1 231916Z 27027G33KT 15/M07 A2992 RMK A01 T01481074  RH  021%=      5-min Rain = 0
KSW1 231917Z 27027G34KT 15/M08 A2992 RMK A01 T01471080  RH  020%=      5-min Rain = 0
KSW1 231918Z 27027G36KT 15/M08 A2991 RMK A01 T01451079  RH  020%=      5-min Rain = 0
KSW1 231919Z 27032G39KT 15/M08 A2991 RMK A01 T01451078  RH  021%=      5-min Rain = 0
KSW1 231920Z 28034G39KT 14/M08 A2991 RMK A01 T01441079  RH  021%=      5-min Rain = 0
KSW1 231921Z 27028G36KT 14/M08 A2991 RMK A01 T01421081  RH  021%=      5-min Rain = 0
KSW1 231922Z 27022G31KT 14/M08 A2991 RMK A01 T01431076  RH  021%=      5-min Rain = 0
KSW1 231923Z 28031G36KT 15/M08 A2991 RMK A01 T01461076  RH  021%=      5-min Rain = 0
KSW1 231924Z 27030KT 15/M08 A2991 RMK A01 T01451080  RH  020%=      5-min Rain = 0
KSW1 231925Z 27032G39KT 14/M08 A2991 RMK A01 T01441080  RH  020%=      5-min Rain = 0
KSW1 231926Z 26026G31KT 14/M08 A2991 RMK A01 T01431081  RH  020%=      5-min Rain = 0
KSW1 231927Z 26025G33KT 15/M08 A2991 RMK A01 T01451077  RH  021%=      5-min Rain = 0
KSW1 231928Z 28026G34KT 15/M08 A2991 RMK A01 T01481077  RH  020%=      5-min Rain = 0
KSW1 231929Z 28023G31KT 15/M08 A2991 RMK A01 T01481075  RH  021%=      5-min Rain = 0
KSW1 231930Z 27023G28KT 15/M08 A2991 RMK A01 T01491075  RH  021%=      5-min Rain = 0
KSW1 231931Z 27029G35KT 15/M08 A2991 RMK A01 T01501075  RH  020%=      5-min Rain = 0
KSW1 231932Z 27028G33KT 15/M08 A2991 RMK A01 T01481080  RH  020%=      5-min Rain = 0
KSW1 231933Z 27029G36KT 15/M08 A2991 RMK A01 T01451082  RH  020%=      5-min Rain = 0
KSW1 231934Z 27020G26KT 15/M08 A2991 RMK A01 T01451078  RH  021%=      5-min Rain = 0
KSW1 231935Z 27026G35KT 15/M08 A2991 RMK A01 T01491075  RH  021%=      5-min Rain = 0
KSW1 231936Z 26027G33KT 15/M07 A2991 RMK A01 T01511074  RH  020%=      5-min Rain = 0
KSW1 231937Z 26027G32KT 15/M08 A2991 RMK A01 T01511080  RH  020%=      5-min Rain = 0
KSW1 231938Z 27026G31KT 15/M08 A2991 RMK A01 T01481078  RH  020%=      5-min Rain = 0
KSW1 231939Z 26029G36KT 15/M08 A299 RMK A01 T01471081  RH  020%=      5-min Rain = 0
KSW1 231940Z 26030G35KT 15/M08 A299 RMK A01 T01471080  RH  020%=      5-min Rain = 0
KSW1 231941Z 28032G40KT 15/M08 A299 RMK A01 T01471082  RH  020%=      5-min Rain = 0
KSW1 231942Z 27026G33KT 15/M08 A299 RMK A01 T01471081  RH  020%=      5-min Rain = 0
KSW1 231943Z 27029G35KT 15/M08 A2991 RMK A01 T01481080  RH  020%=      5-min Rain = 0
KSW1 231944Z 27026G31KT 15/M08 A2991 RMK A01 T01481082  RH  020%=      5-min Rain = 0
KSW1 231945Z 27025G32KT 15/M08 A299 RMK A01 T01471083  RH  020%=      5-min Rain = 0
KSW1 231946Z 27031G41KT 15/M08 A299 RMK A01 T01481081  RH  020%=      5-min Rain = 0
KSW1 231947Z 27025G34KT 15/M08 A2991 RMK A01 T01491082  RH  020%=      5-min Rain = 0
KSW1 231948Z 27027G33KT 15/M08 A2991 RMK A01 T01501081  RH  020%=      5-min Rain = 0
KSW1 231949Z 28026G31KT 15/M08 A2991 RMK A01 T01501083  RH  019%=      5-min Rain = 0
KSW1 231950Z 27024KT 15/M08 A2991 RMK A01 T01501083  RH  019%=      5-min Rain = 0
KSW1 231951Z 28025G30KT 15/M08 A299 RMK A01 T01501082  RH  019%=      5-min Rain = 0
KSW1 231952Z 26025G36KT 15/M08 A299 RMK A01 T01531080  RH  019%=      5-min Rain = 0
KSW1 231953Z 26028G35KT 15/M09 A299 RMK A01 T01541088  RH  018%=      5-min Rain = 0
KSW1 231954Z 28026G39KT 15/M09 A299 RMK A01 T01541085  RH  019%=      5-min Rain = 0
KSW1 231955Z 28023G31KT 16/M09 A299 RMK A01 T01551088  RH  018%=      5-min Rain = 0
KSW1 231956Z 28027G36KT 16/M09 A299 RMK A01 T01561087  RH  018%=      5-min Rain = 0
KSW1 231957Z 29023G30KT 16/M09 A299 RMK A01 T01561091  RH  017%=      5-min Rain = 0
KSW1 231958Z 28026KT 16/M09 A299 RMK A01 T01551092  RH  017%=      5-min Rain = 0
KSW1 231959Z 27025KT 16/M09 A299 RMK A01 T01551089  RH  018%=      5-min Rain = 0
KSW1 232000Z 28024G30KT 16/M09 A299 RMK A01 T01561091  RH  017%=      5-min Rain = 0
KSW1 232001Z 29023G34KT 16/M09 A299 RMK A01 T01551088  RH  018%=      5-min Rain = 0
KSW1 232002Z 28033G44KT 16/M09 A299 RMK A01 T01561090  RH  017%=      5-min Rain = 0
KSW1 232003Z 28035G42KT 16/M09 A299 RMK A01 T01551094  RH  017%=      5-min Rain = 0
KSW1 232004Z 29033G40KT 15/M10 A299 RMK A01 T01531095  RH  017%=      5-min Rain = 0
KSW1 232005Z 29029G35KT 15/M10 A299 RMK A01 T01531096  RH  017%=      5-min Rain = 0
KSW1 232006Z 28028G33KT 15/M10 A2991 RMK A01 T01521097  RH  017%=      5-min Rain = 0
KSW1 232007Z 28023G29KT 15/M10 A2991 RMK A01 T01521095  RH  017%=      5-min Rain = 0
KSW1 232008Z 28024G31KT 16/M09 A2991 RMK A01 T01551091  RH  018%=      5-min Rain = 0
KSW1 232009Z 28020G29KT 16/M09 A2991 RMK A01 T01571090  RH  017%=      5-min Rain = 0
KSW1 232010Z 27024G31KT 16/M09 A2991 RMK A01 T01581092  RH  017%=      5-min Rain = 0
KSW1 232011Z 27027G32KT 16/M09 A2991 RMK A01 T01571093  RH  017%=      5-min Rain = 0
KSW1 232012Z 28027G32KT 16/M09 A2991 RMK A01 T01571092  RH  017%=      5-min Rain = 0
KSW1 232013Z 27028KT 16/M09 A2991 RMK A01 T01561094  RH  017%=      5-min Rain = 0
KSW1 232014Z 27031KT 16/M10 A2991 RMK A01 T01551095  RH  017%=      5-min Rain = 0
KSW1 232015Z 28027G32KT 15/M09 A2991 RMK A01 T01541093  RH  017%=      5-min Rain = 0
KSW1 232016Z 27030G41KT 16/M09 A2991 RMK A01 T01551093  RH  017%=      5-min Rain = 0
KSW1 232017Z 27030KT 16/M09 A2991 RMK A01 T01561094  RH  017%=      5-min Rain = 0
KSW1 232018Z 27027G33KT 16/M10 A2991 RMK A01 T01561095  RH  017%=      5-min Rain = 0
KSW1 232019Z 27031G37KT 16/M10 A2991 RMK A01 T01561095  RH  017%=      5-min Rain = 0
KSW1 232020Z 26030G38KT 16/M10 A2991 RMK A01 T01571099  RH  016%=      5-min Rain = 0
KSW1 232021Z 27030G37KT 16/M10 A2991 RMK A01 T01561097  RH  017%=      5-min Rain = 0
KSW1 232022Z 27028G35KT 16/M10 A2991 RMK A01 T01561096  RH  017%=      5-min Rain = 0
KSW1 232023Z 28030KT 16/M10 A2991 RMK A01 T01561096  RH  017%=      5-min Rain = 0
KSW1 232024Z 28028G33KT 16/M09 A2991 RMK A01 T01561094  RH  017%=      5-min Rain = 0
KSW1 232025Z 29025G35KT 16/M09 A2991 RMK A01 T01561093  RH  017%=      5-min Rain = 0
KSW1 232026Z 29029G35KT 16/M09 A2991 RMK A01 T01571093  RH  017%=      5-min Rain = 0
KSW1 232027Z 29026KT 16/M09 A2991 RMK A01 T01561094  RH  017%=      5-min Rain = 0
KSW1 232028Z 28025G31KT 16/M09 A2991 RMK A01 T01561094  RH  017%=      5-min Rain = 0
KSW1 232029Z 28024G32KT 16/M09 A2991 RMK A01 T01571092  RH  017%=      5-min Rain = 0
KSW1 232030Z 28022G28KT 16/M09 A2991 RMK A01 T01581091  RH  017%=      5-min Rain = 0
KSW1 232031Z 27026G33KT 16/M09 A2991 RMK A01 T01601090  RH  017%=      5-min Rain = 0
KSW1 232032Z 27030G36KT 16/M09 A2991 RMK A01 T01611093  RH  017%=      5-min Rain = 0
KSW1 232033Z 27023KT 16/M09 A2991 RMK A01 T01591093  RH  017%=      5-min Rain = 0
KSW1 232034Z 26019G24KT 16/M09 A2991 RMK A01 T01611088  RH  017%=      5-min Rain = 0
KSW1 232035Z 27027G32KT 16/M09 A2991 RMK A01 T01631091  RH  017%=      5-min Rain = 0
KSW1 232036Z 27028G33KT 16/M09 A2991 RMK A01 T01621091  RH  017%=      5-min Rain = 0
KSW1 232037Z 27031G37KT 16/M10 A2991 RMK A01 T01611096  RH  016%=      5-min Rain = 0
KSW1 232038Z 27028G37KT 16/M10 A2991 RMK A01 T01591096  RH  016%=      5-min Rain = 0
KSW1 232039Z 27027G35KT 16/M10 A2991 RMK A01 T01581096  RH  016%=      5-min Rain = 0
KSW1 232040Z 28025G34KT 16/M09 A2991 RMK A01 T01581094  RH  017%=      5-min Rain = 0
KSW1 232041Z 27030G36KT 16/M10 A2991 RMK A01 T01591095  RH  017%=      5-min Rain = 0
KSW1 232042Z 27032KT 16/M10 A2991 RMK A01 T01591097  RH  016%=      5-min Rain = 0
KSW1 232043Z 27030G37KT 16/M10 A2991 RMK A01 T01581097  RH  016%=      5-min Rain = 0
KSW1 232044Z 28030G40KT 16/M10 A2991 RMK A01 T01571097  RH  016%=      5-min Rain = 0
KSW1 232045Z 27030G35KT 16/M10 A2991 RMK A01 T01571097  RH  016%=      5-min Rain = 0
KSW1 232046Z 28027G32KT 16/M10 A2991 RMK A01 T01571097  RH  017%=      5-min Rain = 0
KSW1 232047Z 27028G34KT 16/M09 A2991 RMK A01 T01591094  RH  017%=      5-min Rain = 0
KSW1 232048Z 27026G33KT 16/M10 A2991 RMK A01 T01601097  RH  016%=      5-min Rain = 0
KSW1 232049Z 27023G33KT 16/M09 A2991 RMK A01 T01601093  RH  017%=      5-min Rain = 0
KSW1 232050Z 26032KT 16/M10 A2991 RMK A01 T01621095  RH  016%=      5-min Rain = 0
KSW1 232051Z 27032KT 16/M10 A2991 RMK A01 T01611098  RH  016%=      5-min Rain = 0
KSW1 232052Z 27027G34KT 16/M10 A2991 RMK A01 T01591101  RH  016%=      5-min Rain = 0
KSW1 232053Z 27021G27KT 16/M10 A2992 RMK A01 T01581096  RH  016%=      5-min Rain = 0
KSW1 232054Z 27022G31KT 16/M09 A2992 RMK A01 T01621092  RH  017%=      5-min Rain = 0
KSW1 232055Z 28020G29KT 17/M09 A2992 RMK A01 T01651090  RH  017%=      5-min Rain = 0
KSW1 232056Z 27023G28KT 17/M09 A2992 RMK A01 T01661094  RH  016%=      5-min Rain = 0
KSW1 232057Z 27019G24KT 17/M09 A2992 RMK A01 T01651093  RH  016%=      5-min Rain = 0
KSW1 232058Z 26023G29KT 17/M09 A2992 RMK A01 T01651094  RH  016%=      5-min Rain = 0
KSW1 232059Z 26021G28KT 17/M09 A2992 RMK A01 T01651093  RH  016%=      5-min Rain = 0
KSW1 232100Z 26022G29KT 17/M09 A2992 RMK A01 T01651094  RH  016%=      5-min Rain = 0
KSW1 232101Z 27030G36KT 17/M10 A2992 RMK A01 T01651096  RH  016%=      5-min Rain = 0
KSW1 232102Z 27023G32KT 16/M10 A2992 RMK A01 T01641096  RH  016%=      5-min Rain = 0
KSW1 232103Z 27028G35KT 17/M10 A2992 RMK A01 T01651098  RH  016%=      5-min Rain = 0
KSW1 232104Z 28026G33KT 16/M10 A2992 RMK A01 T01641099  RH  016%=      5-min Rain = 0
KSW1 232105Z 28023G28KT 16/M10 A2992 RMK A01 T01621100  RH  016%=      5-min Rain = 0
KSW1 232106Z 27023G29KT 16/M10 A2992 RMK A01 T01621097  RH  016%=      5-min Rain = 0
KSW1 232107Z 27027G34KT 16/M10 A2992 RMK A01 T01631100  RH  015%=      5-min Rain = 0
KSW1 232108Z 29023G32KT 16/M10 A2992 RMK A01 T01631098  RH  016%=      5-min Rain = 0
KSW1 232109Z 28026G34KT 16/M10 A2992 RMK A01 T01641100  RH  015%=      5-min Rain = 0
KSW1 232110Z 27023G30KT 16/M10 A2992 RMK A01 T01621101  RH  015%=      5-min Rain = 0
KSW1 232111Z 28025G31KT 16/M10 A2992 RMK A01 T01621098  RH  016%=      5-min Rain = 0
KSW1 232112Z 27026G31KT 16/M10 A2992 RMK A01 T01621098  RH  016%=      5-min Rain = 0
KSW1 232113Z 27021G30KT 16/M10 A2992 RMK A01 T01631096  RH  016%=      5-min Rain = 0
KSW1 232114Z 27023G29KT 17/M10 A2992 RMK A01 T01651097  RH  016%=      5-min Rain = 0
KSW1 232115Z 26024KT 17/M10 A2992 RMK A01 T01651098  RH  016%=      5-min Rain = 0
KSW1 232116Z 27023G28KT 17/M10 A2992 RMK A01 T01651098  RH  016%=      5-min Rain = 0
KSW1 232117Z 26029G35KT 17/M10 A2992 RMK A01 T01651101  RH  015%=      5-min Rain = 0
KSW1 232118Z 26025G31KT 17/M10 A2992 RMK A01 T01651103  RH  015%=      5-min Rain = 0
KSW1 232119Z 28022KT 17/M10 A2992 RMK A01 T01671101  RH  015%=      5-min Rain = 0
KSW1 232120Z 27022G31KT 17/M10 A2992 RMK A01 T01691099  RH  015%=      5-min Rain = 0
KSW1 232121Z 27028KT 17/M11 A2992 RMK A01 T01681107  RH  014%=      5-min Rain = 0
KSW1 232122Z 28025G31KT 17/M11 A2992 RMK A01 T01661106  RH  014%=      5-min Rain = 0
KSW1 232123Z 29025KT 17/M10 A2992 RMK A01 T01661103  RH  015%=      5-min Rain = 0
KSW1 232124Z 28027G32KT 17/M10 A2993 RMK A01 T01661095  RH  016%=      5-min Rain = 0
KSW1 232125Z 29028G34KT 16/M09 A2993 RMK A01 T01641093  RH  016%=      5-min Rain = 0
KSW1 232126Z 30025KT 16/M09 A2993 RMK A01 T01621094  RH  016%=      5-min Rain = 0
KSW1 232127Z 29025G31KT 16/M09 A2993 RMK A01 T01611094  RH  016%=      5-min Rain = 0
KSW1 232128Z 30027G35KT 16/M09 A2993 RMK A01 T01621093  RH  017%=      5-min Rain = 0
KSW1 232129Z 29023G29KT 16/M09 A2993 RMK A01 T01621094  RH  016%=      5-min Rain = 0
KSW1 232130Z 28021G28KT 16/M09 A2993 RMK A01 T01631093  RH  016%=      5-min Rain = 0
KSW1 232131Z 28021G26KT 16/M09 A2993 RMK A01 T01641091  RH  016%=      5-min Rain = 0
KSW1 232132Z 29024G29KT 16/M09 A2993 RMK A01 T01641091  RH  017%=      5-min Rain = 0
KSW1 232133Z 28023G29KT 16/M09 A2993 RMK A01 T01631092  RH  017%=      5-min Rain = 0
KSW1 232134Z 29029G34KT 16/M09 A2993 RMK A01 T01621092  RH  016%=      5-min Rain = 0
KSW1 232135Z 29027G33KT 16/M09 A2993 RMK A01 T01601094  RH  017%=      5-min Rain = 0
KSW1 232136Z 29024G37KT 16/M09 A2993 RMK A01 T01601091  RH  017%=      5-min Rain = 0
KSW1 232137Z 29026G34KT 16/M09 A2993 RMK A01 T01601093  RH  017%=      5-min Rain = 0
KSW1 232138Z 28026G33KT 16/M09 A2994 RMK A01 T01601091  RH  017%=      5-min Rain = 0
KSW1 232139Z 28027G32KT 16/M09 A2994 RMK A01 T01601093  RH  017%=      5-min Rain = 0
KSW1 232140Z 29022G28KT 16/M09 A2994 RMK A01 T01591093  RH  017%=      5-min Rain = 0
KSW1 232141Z 29019G24KT 16/M09 A2994 RMK A01 T01591088  RH  017%=      5-min Rain = 0
KSW1 232142Z 28020G27KT 16/M09 A2994 RMK A01 T01621085  RH  018%=      5-min Rain = 0
KSW1 232143Z 29028G38KT 16/M09 A2994 RMK A01 T01631091  RH  017%=      5-min Rain = 0
KSW1 232144Z 29026G32KT 16/M10 A2994 RMK A01 T01601096  RH  016%=      5-min Rain = 0
KSW1 232145Z 29027G32KT 16/M10 A2994 RMK A01 T01591095  RH  017%=      5-min Rain = 0
KSW1 232146Z 28029G35KT 16/M09 A2994 RMK A01 T01581093  RH  017%=      5-min Rain = 0
KSW1 232147Z 28023G30KT 16/M09 A2994 RMK A01 T01581092  RH  017%=      5-min Rain = 0
KSW1 232148Z 29020G25KT 16/M09 A2994 RMK A01 T01581089  RH  017%=      5-min Rain = 0
KSW1 232149Z 28021KT 16/M09 A2994 RMK A01 T01601088  RH  017%=      5-min Rain = 0
KSW1 232150Z 28027G33KT 16/M09 A2994 RMK A01 T01601088  RH  017%=      5-min Rain = 0
KSW1 232151Z 29026G32KT 16/M09 A2994 RMK A01 T01601090  RH  017%=      5-min Rain = 0
KSW1 232152Z 29026G31KT 16/M09 A2994 RMK A01 T01581091  RH  017%=      5-min Rain = 0
KSW1 232153Z 29026KT 16/M09 A2995 RMK A01 T01571089  RH  017%=      5-min Rain = 0
KSW1 232154Z 28023KT 16/M09 A2995 RMK A01 T01571089  RH  018%=      5-min Rain = 0
KSW1 232155Z 28024G30KT 16/M09 A2995 RMK A01 T01561088  RH  018%=      5-min Rain = 0
KSW1 232156Z 28026G33KT 16/M09 A2995 RMK A01 T01571089  RH  018%=      5-min Rain = 0
KSW1 232157Z 29024G31KT 16/M09 A2995 RMK A01 T01581092  RH  017%=      5-min Rain = 0
KSW1 232158Z 28026KT 16/M09 A2995 RMK A01 T01571093  RH  017%=      5-min Rain = 0
KSW1 232159Z 28025G30KT 16/M09 A2995 RMK A01 T01571092  RH  017%=      5-min Rain = 0
KSW1 232200Z 29027KT 16/M10 A2995 RMK A01 T01561096  RH  017%=      5-min Rain = 0
KSW1 232201Z 28019G26KT 16/M09 A2995 RMK A01 T01571094  RH  017%=      5-min Rain = 0
KSW1 232202Z 28026G34KT 16/M09 A2995 RMK A01 T01581094  RH  017%=      5-min Rain = 0
KSW1 232203Z 28026G33KT 16/M10 A2995 RMK A01 T01581098  RH  016%=      5-min Rain = 0
KSW1 232204Z 27026G32KT 16/M10 A2995 RMK A01 T01571098  RH  016%=      5-min Rain = 0
KSW1 232205Z 27024G31KT 16/M10 A2995 RMK A01 T01561097  RH  017%=      5-min Rain = 0
KSW1 232206Z 28022G27KT 16/M09 A2995 RMK A01 T01571092  RH  017%=      5-min Rain = 0
KSW1 232207Z 29025G30KT 16/M09 A2995 RMK A01 T01581090  RH  017%=      5-min Rain = 0
KSW1 232208Z 29029KT 16/M09 A2995 RMK A01 T01581091  RH  017%=      5-min Rain = 0
KSW1 232209Z 29026G32KT 16/M09 A2995 RMK A01 T01571090  RH  017%=      5-min Rain = 0
KSW1 232210Z 29026KT 16/M09 A2995 RMK A01 T01571089  RH  018%=      5-min Rain = 0
KSW1 232211Z 29018G25KT 16/M09 A2996 RMK A01 T01571085  RH  018%=      5-min Rain = 0
KSW1 232212Z 29020G28KT 16/M08 A2996 RMK A01 T01591082  RH  018%=      5-min Rain = 0
KSW1 232213Z 29021G26KT 16/M08 A2996 RMK A01 T01601081  RH  018%=      5-min Rain = 0
KSW1 232214Z 30026KT 16/M08 A2996 RMK A01 T01591083  RH  018%=      5-min Rain = 0
KSW1 232215Z 29023G29KT 16/M08 A2996 RMK A01 T01581084  RH  018%=      5-min Rain = 0
KSW1 232216Z 29019KT 16/M08 A2996 RMK A01 T01571082  RH  018%=      5-min Rain = 0
KSW1 232217Z 29023G32KT 16/M08 A2996 RMK A01 T01591084  RH  018%=      5-min Rain = 0
KSW1 232218Z 29025G35KT 16/M09 A2996 RMK A01 T01601085  RH  018%=      5-min Rain = 0
KSW1 232219Z 29026KT 16/M09 A2996 RMK A01 T01581086  RH  018%=      5-min Rain = 0
KSW1 232220Z 30030G40KT 16/M09 A2996 RMK A01 T01581085  RH  018%=      5-min Rain = 0
KSW1 232221Z 28023G28KT 16/M09 A2996 RMK A01 T01561086  RH  018%=      5-min Rain = 0
KSW1 232222Z 29017G22KT 16/M08 A2996 RMK A01 T01561081  RH  019%=      5-min Rain = 0
KSW1 232223Z 29021G29KT 16/M08 A2996 RMK A01 T01581079  RH  019%=      5-min Rain = 0
KSW1 232224Z 29023G29KT 16/M08 A2996 RMK A01 T01581079  RH  019%=      5-min Rain = 0
KSW1 232225Z 29024G29KT 16/M08 A2996 RMK A01 T01571081  RH  019%=      5-min Rain = 0
KSW1 232226Z 29025KT 16/M08 A2996 RMK A01 T01571083  RH  018%=      5-min Rain = 0
KSW1 232227Z 29024KT 16/M08 A2996 RMK A01 T01561082  RH  019%=      5-min Rain = 0
KSW1 232228Z 29024G33KT 16/M08 A2996 RMK A01 T01561083  RH  018%=      5-min Rain = 0
KSW1 232229Z 29024G33KT 16/M08 A2996 RMK A01 T01561082  RH  019%=      5-min Rain = 0
KSW1 232230Z 29027G33KT 16/M08 A2996 RMK A01 T01561083  RH  019%=      5-min Rain = 0
KSW1 232231Z 29020G25KT 16/M08 A2996 RMK A01 T01561081  RH  019%=      5-min Rain = 0
KSW1 232232Z 29024G31KT 16/M08 A2996 RMK A01 T01561082  RH  019%=      5-min Rain = 0
KSW1 232233Z 29023KT 16/M08 A2996 RMK A01 T01571084  RH  018%=      5-min Rain = 0
KSW1 232234Z 30017G25KT 16/M08 A2996 RMK A01 T01561081  RH  019%=      5-min Rain = 0
KSW1 232235Z 29020G27KT 16/M08 A2996 RMK A01 T01571077  RH  019%=      5-min Rain = 0
KSW1 232236Z 29024KT 16/M08 A2996 RMK A01 T01581079  RH  019%=      5-min Rain = 0
KSW1 232237Z 29023G29KT 16/M08 A2996 RMK A01 T01571078  RH  019%=      5-min Rain = 0
KSW1 232238Z 29022G27KT 16/M08 A2996 RMK A01 T01571080  RH  019%=      5-min Rain = 0
KSW1 232239Z 30019G26KT 16/M08 A2997 RMK A01 T01571078  RH  019%=      5-min Rain = 0
KSW1 232240Z 30025G31KT 16/M08 A2997 RMK A01 T01581081  RH  019%=      5-min Rain = 0
KSW1 232241Z 29026KT 16/M08 A2997 RMK A01 T01571083  RH  018%=      5-min Rain = 0
KSW1 232242Z 29024G29KT 16/M08 A2997 RMK A01 T01561080  RH  019%=      5-min Rain = 0
KSW1 232243Z 29020KT 16/M08 A2997 RMK A01 T01561078  RH  019%=      5-min Rain = 0
KSW1 232244Z 29021G29KT 16/M08 A2997 RMK A01 T01561077  RH  019%=      5-min Rain = 0
KSW1 232245Z 29022KT 16/M08 A2997 RMK A01 T01571079  RH  019%=      5-min Rain = 0
KSW1 232246Z 28023G28KT 16/M08 A2997 RMK A01 T01561079  RH  019%=      5-min Rain = 0
KSW1 232247Z 28022KT 16/M08 A2997 RMK A01 T01561078  RH  019%=      5-min Rain = 0
KSW1 232248Z 28019G24KT 16/M08 A2997 RMK A01 T01561077  RH  019%=      5-min Rain = 0
KSW1 232249Z 28020G25KT 16/M08 A2997 RMK A01 T01571076  RH  019%=      5-min Rain = 0
KSW1 232250Z 28023G29KT 16/M08 A2997 RMK A01 T01571078  RH  019%=      5-min Rain = 0
KSW1 232251Z 28020KT 16/M08 A2997 RMK A01 T01561079  RH  019%=      5-min Rain = 0
KSW1 232252Z 28022G27KT 16/M08 A2997 RMK A01 T01561078  RH  019%=      5-min Rain = 0
KSW1 232253Z 28021KT 16/M08 A2997 RMK A01 T01561080  RH  019%=      5-min Rain = 0
KSW1 232254Z 28018KT 16/M08 A2998 RMK A01 T01561078  RH  019%=      5-min Rain = 0
KSW1 232255Z 28018KT 16/M08 A2998 RMK A01 T01561076  RH  020%=      5-min Rain = 0
KSW1 232256Z 28018G25KT 16/M08 A2998 RMK A01 T01571075  RH  020%=      5-min Rain = 0
KSW1 232257Z 28019G26KT 16/M08 A2998 RMK A01 T01571078  RH  019%=      5-min Rain = 0
KSW1 232258Z 28020G25KT 16/M08 A2998 RMK A01 T01571077  RH  019%=      5-min Rain = 0
KSW1 232259Z 28022KT 16/M08 A2998 RMK A01 T01561079  RH  019%=      5-min Rain = 0
KSW1 232300Z 28015KT 16/M08 A2998 RMK A01 T01561078  RH  019%=      5-min Rain = 0
KSW1 232301Z 28020G25KT 16/M08 A2998 RMK A01 T01561077  RH  019%=      5-min Rain = 0
KSW1 232302Z 28021G26KT 16/M08 A2998 RMK A01 T01551077  RH  019%=      5-min Rain = 0
KSW1 232303Z 29021KT 16/M08 A2998 RMK A01 T01551075  RH  020%=      5-min Rain = 0
KSW1 232304Z 29019KT 16/M08 A2998 RMK A01 T01551075  RH  020%=      5-min Rain = 0
KSW1 232305Z 29021KT 16/M08 A2998 RMK A01 T01551075  RH  020%=      5-min Rain = 0
KSW1 232306Z 29022G27KT 16/M08 A2998 RMK A01 T01551077  RH  019%=      5-min Rain = 0
KSW1 232307Z 29018G23KT 16/M08 A2998 RMK A01 T01551076  RH  020%=      5-min Rain = 0
KSW1 232308Z 29020KT 16/M08 A2998 RMK A01 T01551076  RH  020%=      5-min Rain = 0
KSW1 232309Z 29019KT 16/M08 A2999 RMK A01 T01551077  RH  019%=      5-min Rain = 0
KSW1 232310Z 28019KT 16/M08 A2999 RMK A01 T01551078  RH  019%=      5-min Rain = 0
KSW1 232311Z 29017KT 16/M08 A2999 RMK A01 T01551078  RH  019%=      5-min Rain = 0
KSW1 232312Z 29020KT 16/M08 A2999 RMK A01 T01551077  RH  020%=      5-min Rain = 0
KSW1 232313Z 29021G27KT 16/M08 A2999 RMK A01 T01551077  RH  020%=      5-min Rain = 0
KSW1 232314Z 29021KT 15/M08 A2999 RMK A01 T01541076  RH  020%=      5-min Rain = 0
KSW1 232315Z 29021G27KT 15/M08 A2999 RMK A01 T01541075  RH  020%=      5-min Rain = 0
KSW1 232316Z 29018G23KT 15/M08 A2999 RMK A01 T01541075  RH  020%=      5-min Rain = 0
KSW1 232317Z 28021KT 15/M07 A2999 RMK A01 T01541074  RH  020%=      5-min Rain = 0
KSW1 232318Z 28018KT 15/M08 A2999 RMK A01 T01541075  RH  020%=      5-min Rain = 0
KSW1 232319Z 29017G22KT 15/M07 A30 RMK A01 T01541072  RH  020%=      5-min Rain = 0
KSW1 232320Z 28020G29KT 16/M07 A2999 RMK A01 T01551072  RH  020%=      5-min Rain = 0
KSW1 232321Z 28023G30KT 15/M07 A2999 RMK A01 T01541073  RH  020%=      5-min Rain = 0
KSW1 232322Z 29018KT 15/M07 A30 RMK A01 T01541073  RH  020%=      5-min Rain = 0
KSW1 232323Z 29020KT 15/M07 A30 RMK A01 T01541072  RH  020%=      5-min Rain = 0
KSW1 232324Z 29015KT 15/M07 A30 RMK A01 T01541073  RH  020%=      5-min Rain = 0
KSW1 232325Z 28017KT 15/M07 A30 RMK A01 T01541071  RH  021%=      5-min Rain = 0
KSW1 232326Z 28023G28KT 15/M07 A30 RMK A01 T01541071  RH  021%=      5-min Rain = 0
KSW1 232327Z 28020G25KT 15/M07 A30 RMK A01 T01541072  RH  021%=      5-min Rain = 0
KSW1 232328Z 28021KT 15/M07 A30 RMK A01 T01531072  RH  021%=      5-min Rain = 0
KSW1 232329Z 28020KT 15/M07 A30 RMK A01 T01531072  RH  021%=      5-min Rain = 0
KSW1 232330Z 29021KT 15/M07 A30 RMK A01 T01531071  RH  021%=      5-min Rain = 0
KSW1 232331Z 28015KT 15/M07 A30 RMK A01 T01531070  RH  021%=      5-min Rain = 0
KSW1 232332Z 28019KT 15/M07 A30 RMK A01 T01531069  RH  021%=      5-min Rain = 0
KSW1 232333Z 28020KT 15/M07 A30 RMK A01 T01521070  RH  021%=      5-min Rain = 0
KSW1 232334Z 29020KT 15/M07 A30 RMK A01 T01521070  RH  021%=      5-min Rain = 0
KSW1 232335Z 28021KT 15/M07 A30 RMK A01 T01511070  RH  021%=      5-min Rain = 0
KSW1 232336Z 29018G25KT 15/M07 A30 RMK A01 T01511069  RH  021%=      5-min Rain = 0
KSW1 232337Z 29014G20KT 15/M07 A30 RMK A01 T01511069  RH  021%=      5-min Rain = 0
KSW1 232338Z 29019KT 15/M07 A30 RMK A01 T01511068  RH  022%=      5-min Rain = 0
KSW1 232339Z 29018G23KT 15/M07 A30 RMK A01 T01511069  RH  021%=      5-min Rain = 0
KSW1 232340Z 29018KT 15/M07 A30 RMK A01 T01501068  RH  022%=      5-min Rain = 0
KSW1 232341Z 29016KT 15/M07 A30 RMK A01 T01501067  RH  022%=      5-min Rain = 0
KSW1 232342Z 29017KT 15/M07 A30 RMK A01 T01501068  RH  022%=      5-min Rain = 0
KSW1 232343Z 29016KT 15/M07 A3001 RMK A01 T01501067  RH  022%=      5-min Rain = 0
KSW1 232344Z 29016KT 15/M07 A3001 RMK A01 T01501067  RH  022%=      5-min Rain = 0
KSW1 232345Z 29018KT 15/M07 A3001 RMK A01 T01501067  RH  022%=      5-min Rain = 0
KSW1 232346Z 29018KT 15/M07 A3001 RMK A01 T01501069  RH  021%=      5-min Rain = 0
KSW1 232347Z 29017KT 15/M07 A3001 RMK A01 T01501068  RH  022%=      5-min Rain = 0
KSW1 232348Z 29017G22KT 15/M07 A3001 RMK A01 T01501067  RH  022%=      5-min Rain = 0
KSW1 232349Z 29017KT 15/M07 A3001 RMK A01 T01491069  RH  022%=      5-min Rain = 0
KSW1 232350Z 29013KT 15/M07 A3001 RMK A01 T01491069  RH  022%=      5-min Rain = 0
KSW1 232351Z 28015KT 15/M07 A3001 RMK A01 T01491068  RH  022%=      5-min Rain = 0
KSW1 232352Z 29014KT 15/M07 A3001 RMK A01 T01481068  RH  022%=      5-min Rain = 0
KSW1 232353Z 29012G17KT 15/M07 A3001 RMK A01 T01481067  RH  022%=      5-min Rain = 0
KSW1 232354Z 29018KT 15/M07 A3001 RMK A01 T01481067  RH  022%=      5-min Rain = 0
KSW1 232355Z 29017KT 15/M07 A3001 RMK A01 T01481067  RH  022%=      5-min Rain = 0
KSW1 232356Z 29015G21KT 15/M07 A3001 RMK A01 T01481066  RH  022%=      5-min Rain = 0
KSW1 232357Z 29016KT 15/M07 A3001 RMK A01 T01471065  RH  022%=      5-min Rain = 0
KSW1 232358Z 28017G22KT 15/M07 A3001 RMK A01 T01471066  RH  022%=      5-min Rain = 0
KSW1 232359Z 29016KT 15/M07 A3001 RMK A01 T01471066  RH  022%=      5-min Rain = 0
KSW1 240000Z 28013KT 15/M07 A3001 RMK A01 T01471067  RH  022%=      5-min Rain = 0
KSW1 240001Z 29014KT 15/M07 A3001 RMK A01 T01471066  RH  022%=      5-min Rain = 0
KSW1 240002Z 29016KT 15/M07 A3001 RMK A01 T01461066  RH  022%=      5-min Rain = 0
KSW1 240003Z 29014KT 15/M07 A3002 RMK A01 T01461065  RH  023%=      5-min Rain = 0
KSW1 240004Z 29013KT 15/M07 A3002 RMK A01 T01451065  RH  023%=      5-min Rain = 0
KSW1 240005Z 29010KT 15/M06 A3002 RMK A01 T01451064  RH  023%=      5-min Rain = 0
KSW1 240006Z 29011KT 14/M06 A3002 RMK A01 T01441064  RH  023%=      5-min Rain = 0
KSW1 240007Z 28012KT 14/M06 A3002 RMK A01 T01431064  RH  023%=      5-min Rain = 0
KSW1 240008Z 29011KT 14/M06 A3002 RMK A01 T01431063  RH  023%=      5-min Rain = 0
KSW1 240009Z 29011KT 14/M06 A3002 RMK A01 T01421063  RH  023%=      5-min Rain = 0
KSW1 240010Z 29012KT 14/M06 A3002 RMK A01 T01421063  RH  024%=      5-min Rain = 0
KSW1 240011Z 29012KT 14/M06 A3002 RMK A01 T01421064  RH  023%=      5-min Rain = 0
KSW1 240012Z 29009KT 14/M06 A3002 RMK A01 T01421063  RH  024%=      5-min Rain = 0
KSW1 240013Z 29010KT 14/M06 A3002 RMK A01 T01411062  RH  024%=      5-min Rain = 0
KSW1 240014Z 29010KT 14/M06 A3002 RMK A01 T01401062  RH  024%=      5-min Rain = 0
KSW1 240015Z 30008KT 14/M06 A3003 RMK A01 T01401061  RH  024%=      5-min Rain = 0
KSW1 240016Z 30009G14KT 14/M06 A3003 RMK A01 T01391061  RH  025%=      5-min Rain = 0
KSW1 240017Z 29009G14KT 14/M06 A3003 RMK A01 T01391060  RH  025%=      5-min Rain = 0
KSW1 240018Z 30011KT 14/M06 A3003 RMK A01 T01381059  RH  025%=      5-min Rain = 0
KSW1 240019Z 30010KT 14/M06 A3003 RMK A01 T01381058  RH  025%=      5-min Rain = 0
KSW1 240020Z 30012KT 14/M06 A3003 RMK A01 T01381058  RH  025%=      5-min Rain = 0
KSW1 240021Z 30011KT 14/M06 A3003 RMK A01 T01381057  RH  025%=      5-min Rain = 0
KSW1 240022Z 30010KT 14/M06 A3003 RMK A01 T01381056  RH  026%=      5-min Rain = 0
KSW1 240023Z 30012KT 14/M06 A3003 RMK A01 T01371056  RH  026%=      5-min Rain = 0
KSW1 240024Z 30011KT 14/M06 A3003 RMK A01 T01371055  RH  026%=      5-min Rain = 0
KSW1 240025Z 30012KT 14/M06 A3003 RMK A01 T01361055  RH  026%=      5-min Rain = 0
KSW1 240026Z 29010KT 14/M06 A3003 RMK A01 T01361055  RH  026%=      5-min Rain = 0
KSW1 240027Z 30011KT 14/M06 A3003 RMK A01 T01361055  RH  026%=      5-min Rain = 0
KSW1 240028Z 29011KT 14/M06 A3003 RMK A01 T01351055  RH  026%=      5-min Rain = 0
KSW1 240029Z 30009KT 14/M05 A3003 RMK A01 T01351054  RH  026%=      5-min Rain = 0
KSW1 240030Z 30009KT 13/M05 A3003 RMK A01 T01341054  RH  027%=      5-min Rain = 0
KSW1 240031Z 30009KT 13/M05 A3003 RMK A01 T01331054  RH  027%=      5-min Rain = 0
KSW1 240032Z 30008KT 13/M05 A3004 RMK A01 T01321053  RH  027%=      5-min Rain = 0
KSW1 240033Z 30008KT 13/M05 A3003 RMK A01 T01311053  RH  027%=      5-min Rain = 0
KSW1 240034Z 30009KT 13/M05 A3003 RMK A01 T01301053  RH  028%=      5-min Rain = 0
KSW1 240035Z 31011KT 13/M05 A3004 RMK A01 T01301053  RH  028%=      5-min Rain = 0
KSW1 240036Z 30010KT 13/M05 A3003 RMK A01 T01311054  RH  027%=      5-min Rain = 0
KSW1 240037Z 31009KT 13/M05 A3004 RMK A01 T01311054  RH  027%=      5-min Rain = 0
KSW1 240038Z 31008KT 13/M05 A3004 RMK A01 T01311053  RH  027%=      5-min Rain = 0
KSW1 240039Z 30010KT 13/M05 A3004 RMK A01 T01301053  RH  027%=      5-min Rain = 0
KSW1 240040Z 30009KT 13/M05 A3004 RMK A01 T01301054  RH  027%=      5-min Rain = 0
KSW1 240041Z 31009KT 13/M05 A3004 RMK A01 T01301053  RH  027%=      5-min Rain = 0
KSW1 240042Z 31008KT 13/M05 A3004 RMK A01 T01301053  RH  028%=      5-min Rain = 0
KSW1 240043Z 31008KT 13/M05 A3004 RMK A01 T01291053  RH  028%=      5-min Rain = 0
KSW1 240044Z 31010KT 13/M05 A3004 RMK A01 T01291053  RH  028%=      5-min Rain = 0
KSW1 240045Z 31009KT 13/M05 A3004 RMK A01 T01281053  RH  028%=      5-min Rain = 0
KSW1 240046Z 31009KT 13/M05 A3004 RMK A01 T01281053  RH  028%=      5-min Rain = 0
KSW1 240047Z 31009KT 13/M05 A3004 RMK A01 T01271053  RH  028%=      5-min Rain = 0
KSW1 240048Z 31009KT 13/M05 A3004 RMK A01 T01271053  RH  028%=      5-min Rain = 0
KSW1 240049Z 31009KT 13/M05 A3004 RMK A01 T01261053  RH  028%=      5-min Rain = 0
KSW1 240050Z 30008KT 13/M05 A3005 RMK A01 T01261053  RH  028%=      5-min Rain = 0
KSW1 240051Z 31009KT 13/M05 A3005 RMK A01 T01251053  RH  028%=      5-min Rain = 0
KSW1 240052Z 31009KT 12/M05 A3005 RMK A01 T01241053  RH  029%=      5-min Rain = 0
KSW1 240053Z 31009KT 12/M05 A3005 RMK A01 T01241053  RH  029%=      5-min Rain = 0
KSW1 240054Z 31008KT 12/M05 A3005 RMK A01 T01221053  RH  029%=      5-min Rain = 0
KSW1 240055Z 31009KT 12/M05 A3005 RMK A01 T01221053  RH  029%=      5-min Rain = 0
KSW1 240056Z 31009KT 12/M05 A3005 RMK A01 T01211052  RH  029%=      5-min Rain = 0
KSW1 240057Z 30009KT 12/M05 A3005 RMK A01 T01211052  RH  029%=      5-min Rain = 0
KSW1 240058Z 31009KT 12/M05 A3005 RMK A01 T01211052  RH  029%=      5-min Rain = 0
KSW1 240059Z 31009KT 12/M05 A3005 RMK A01 T01211053  RH  029%=      5-min Rain = 0
KSW1 240100Z 31009KT 12/M05 A3005 RMK A01 T01211052  RH  029%=      5-min Rain = 0
KSW1 240101Z 31009KT 12/M05 A3005 RMK A01 T01211052  RH  030%=      5-min Rain = 0
KSW1 240102Z 31008KT 12/M05 A3005 RMK A01 T01201052  RH  030%=      5-min Rain = 0
KSW1 240103Z 31008KT 12/M05 A3005 RMK A01 T01191052  RH  030%=      5-min Rain = 0
KSW1 240104Z 31007KT 12/M05 A3005 RMK A01 T01191052  RH  030%=      5-min Rain = 0
KSW1 240105Z 31007KT 12/M05 A3005 RMK A01 T01181052  RH  030%=      5-min Rain = 0
KSW1 240106Z 31007KT 12/M05 A3005 RMK A01 T01171051  RH  030%=      5-min Rain = 0
KSW1 240107Z 31007KT 12/M05 A3005 RMK A01 T01171051  RH  030%=      5-min Rain = 0
KSW1 240108Z 31007KT 12/M05 A3005 RMK A01 T01161051  RH  031%=      5-min Rain = 0
KSW1 240109Z 31007KT 12/M05 A3005 RMK A01 T01151051  RH  031%=      5-min Rain = 0
KSW1 240110Z 31007KT 11/M05 A3005 RMK A01 T01141051  RH  031%=      5-min Rain = 0
KSW1 240111Z 32007KT 11/M05 A3005 RMK A01 T01141051  RH  031%=      5-min Rain = 0
KSW1 240112Z 31006KT 11/M05 A3005 RMK A01 T01131051  RH  031%=      5-min Rain = 0
KSW1 240113Z 31006KT 11/M05 A3006 RMK A01 T01121051  RH  032%=      5-min Rain = 0
KSW1 240114Z 32006KT 11/M05 A3006 RMK A01 T01101051  RH  032%=      5-min Rain = 0
KSW1 240115Z 33007KT 11/M05 A3006 RMK A01 T01081052  RH  032%=      5-min Rain = 0
KSW1 240116Z 34008KT 11/M05 A3006 RMK A01 T01061052  RH  032%=      5-min Rain = 0
KSW1 240117Z 33007KT 11/M05 A3006 RMK A01 T01051052  RH  033%=      5-min Rain = 0
KSW1 240118Z 33008KT 11/M05 A3006 RMK A01 T01051052  RH  033%=      5-min Rain = 0
KSW1 240119Z 33007KT 10/M05 A3006 RMK A01 T01041053  RH  033%=      5-min Rain = 0
KSW1 240120Z 33007KT 10/M05 A3006 RMK A01 T01041053  RH  033%=      5-min Rain = 0
KSW1 240121Z 33007KT 10/M05 A3006 RMK A01 T01031052  RH  033%=      5-min Rain = 0
KSW1 240122Z 33007KT 10/M05 A3006 RMK A01 T01021052  RH  033%=      5-min Rain = 0
KSW1 240123Z 34006KT 10/M05 A3006 RMK A01 T01011052  RH  034%=      5-min Rain = 0
KSW1 240124Z 34006KT 10/M05 A3007 RMK A01 T01001053  RH  034%=      5-min Rain = 0
KSW1 240125Z 34006KT 10/M05 A3007 RMK A01 T00991053  RH  034%=      5-min Rain = 0
KSW1 240126Z 34006KT 10/M05 A3007 RMK A01 T00991053  RH  034%=      5-min Rain = 0
KSW1 240127Z 34006KT 10/M05 A3007 RMK A01 T00991053  RH  034%=      5-min Rain = 0
KSW1 240128Z 34006KT 10/M05 A3007 RMK A01 T00981052  RH  034%=      5-min Rain = 0
KSW1 240129Z 34005KT 10/M05 A3007 RMK A01 T00971052  RH  034%=      5-min Rain = 0
KSW1 240130Z 34005KT 10/M05 A3007 RMK A01 T00961052  RH  035%=      5-min Rain = 0
KSW1 240131Z 34005KT 10/M05 A3007 RMK A01 T00951052  RH  035%=      5-min Rain = 0
KSW1 240132Z 35005KT 10/M05 A3007 RMK A01 T00951052  RH  035%=      5-min Rain = 0
KSW1 240133Z 35006KT 09/M05 A3007 RMK A01 T00941052  RH  035%=      5-min Rain = 0
KSW1 240134Z 35006KT 09/M05 A3007 RMK A01 T00931052  RH  036%=      5-min Rain = 0
KSW1 240135Z 35006KT 09/M05 A3007 RMK A01 T00921054  RH  035%=      5-min Rain = 0
KSW1 240136Z 36007KT 09/M06 A3008 RMK A01 T00901055  RH  035%=      5-min Rain = 0
KSW1 240137Z 36007KT 09/M06 A3008 RMK A01 T00881055  RH  036%=      5-min Rain = 0
KSW1 240138Z 00008KT 09/M06 A3008 RMK A01 T00871055  RH  036%=      5-min Rain = 0
KSW1 240139Z 00008KT 09/M05 A3008 RMK A01 T00861054  RH  037%=      5-min Rain = 0
KSW1 240140Z 00008KT 09/M05 A3008 RMK A01 T00851053  RH  037%=      5-min Rain = 0
KSW1 240141Z 00008KT 09/M05 A3008 RMK A01 T00851052  RH  037%=      5-min Rain = 0
KSW1 240142Z 36008KT 09/M05 A3008 RMK A01 T00851052  RH  038%=      5-min Rain = 0
KSW1 240143Z 00008KT 09/M05 A3008 RMK A01 T00851051  RH  038%=      5-min Rain = 0
KSW1 240144Z 00008KT 09/M05 A3008 RMK A01 T00851051  RH  038%=      5-min Rain = 0
KSW1 240145Z 00008KT 08/M05 A3008 RMK A01 T00841051  RH  038%=      5-min Rain = 0
KSW1 240146Z 01008KT 08/M05 A3008 RMK A01 T00841050  RH  038%=      5-min Rain = 0
KSW1 240147Z 01008KT 08/M05 A3008 RMK A01 T00841050  RH  038%=      5-min Rain = 0
KSW1 240148Z 01007KT 08/M05 A3008 RMK A01 T00841050  RH  038%=      5-min Rain = 0
KSW1 240149Z 02008KT 08/M05 A3008 RMK A01 T00841050  RH  038%=      5-min Rain = 0
KSW1 240150Z 02008KT 08/M05 A3008 RMK A01 T00841050  RH  038%=      5-min Rain = 0
KSW1 240151Z 02008KT 08/M05 A3009 RMK A01 T00821051  RH  039%=      5-min Rain = 0
KSW1 240152Z 02009KT 08/M05 A3009 RMK A01 T00811050  RH  039%=      5-min Rain = 0
KSW1 240153Z 02009KT 08/M05 A3009 RMK A01 T00801049  RH  040%=      5-min Rain = 0
KSW1 240154Z 02009KT 08/M05 A3009 RMK A01 T00801048  RH  040%=      5-min Rain = 0
KSW1 240155Z 02008KT 08/M05 A3009 RMK A01 T00801049  RH  040%=      5-min Rain = 0
KSW1 240156Z 02009KT 08/M05 A3009 RMK A01 T00801049  RH  040%=      5-min Rain = 0
KSW1 240157Z 02007KT 08/M05 A3009 RMK A01 T00811048  RH  040%=      5-min Rain = 0
KSW1 240158Z 02008KT 08/M05 A3009 RMK A01 T00811048  RH  040%=      5-min Rain = 0
KSW1 240159Z 02008KT 08/M05 A3009 RMK A01 T00811047  RH  040%=      5-min Rain = 0
KSW1 240200Z 02008KT 08/M05 A3009 RMK A01 T00811047  RH  040%=      5-min Rain = 0
KSW1 240201Z 02008KT 08/M05 A3009 RMK A01 T00811047  RH  040%=      5-min Rain = 0
KSW1 240202Z 02008KT 08/M05 A3009 RMK A01 T00811046  RH  040%=      5-min Rain = 0
KSW1 240203Z 02008KT 08/M05 A3009 RMK A01 T00801046  RH  041%=      5-min Rain = 0
KSW1 240204Z 02008KT 08/M05 A3009 RMK A01 T00791046  RH  041%=      5-min Rain = 0
KSW1 240205Z 02008KT 08/M05 A3009 RMK A01 T00801045  RH  041%=      5-min Rain = 0
KSW1 240206Z 01008KT 08/M04 A3009 RMK A01 T00811044  RH  041%=      5-min Rain = 0
KSW1 240207Z 01008KT 08/M04 A3009 RMK A01 T00811044  RH  041%=      5-min Rain = 0
KSW1 240208Z 01008KT 08/M04 A3009 RMK A01 T00821043  RH  041%=      5-min Rain = 0
KSW1 240209Z 01008KT 08/M04 A3009 RMK A01 T00831043  RH  041%=      5-min Rain = 0
KSW1 240210Z 01008KT 08/M04 A3009 RMK A01 T00831043  RH  041%=      5-min Rain = 0
KSW1 240211Z 02008KT 08/M04 A301 RMK A01 T00821043  RH  041%=      5-min Rain = 0
KSW1 240212Z 02008KT 08/M04 A301 RMK A01 T00811043  RH  041%=      5-min Rain = 0
KSW1 240213Z 02009KT 08/M04 A301 RMK A01 T00811043  RH  041%=      5-min Rain = 0
KSW1 240214Z 02009KT 08/M04 A301 RMK A01 T00811043  RH  041%=      5-min Rain = 0
KSW1 240215Z 01009KT 08/M04 A301 RMK A01 T00801042  RH  042%=      5-min Rain = 0
KSW1 240216Z 01009KT 08/M04 A301 RMK A01 T00811042  RH  042%=      5-min Rain = 0
KSW1 240217Z 01009KT 08/M04 A301 RMK A01 T00811042  RH  041%=      5-min Rain = 0
KSW1 240218Z 01008KT 08/M04 A301 RMK A01 T00821042  RH  041%=      5-min Rain = 0
KSW1 240219Z 01008KT 08/M04 A301 RMK A01 T00821042  RH  041%=      5-min Rain = 0
KSW1 240220Z 01008KT 08/M04 A301 RMK A01 T00821042  RH  041%=      5-min Rain = 0
KSW1 240221Z 01008KT 08/M04 A301 RMK A01 T00811043  RH  041%=      5-min Rain = 0
KSW1 240222Z 01008KT 08/M04 A301 RMK A01 T00801043  RH  042%=      5-min Rain = 0
KSW1 240223Z 01008KT 08/M04 A301 RMK A01 T00801043  RH  042%=      5-min Rain = 0
KSW1 240224Z 01007KT 08/M04 A301 RMK A01 T00791043  RH  042%=      5-min Rain = 0
KSW1 240225Z 01008KT 08/M04 A301 RMK A01 T00791043  RH  042%=      5-min Rain = 0
KSW1 240226Z 01008KT 08/M04 A301 RMK A01 T00801043  RH  042%=      5-min Rain = 0
KSW1 240227Z 01008KT 08/M04 A301 RMK A01 T00791043  RH  042%=      5-min Rain = 0
KSW1 240228Z 01008KT 08/M04 A301 RMK A01 T00791043  RH  042%=      5-min Rain = 0
KSW1 240229Z 01008KT 08/M04 A301 RMK A01 T00791042  RH  042%=      5-min Rain = 0
KSW1 240230Z 02008KT 08/M04 A301 RMK A01 T00781042  RH  042%=      5-min Rain = 0
KSW1 240231Z 02008KT 08/M04 A301 RMK A01 T00771042  RH  043%=      5-min Rain = 0
KSW1 240232Z 01008KT 08/M04 A3011 RMK A01 T00751043  RH  043%=      5-min Rain = 0
KSW1 240233Z 02008KT 07/M04 A3011 RMK A01 T00741043  RH  043%=      5-min Rain = 0
KSW1 240234Z 02008KT 07/M04 A3011 RMK A01 T00731043  RH  044%=      5-min Rain = 0
KSW1 240235Z 02009KT 07/M04 A3011 RMK A01 T00721043  RH  044%=      5-min Rain = 0
KSW1 240236Z 02009KT 07/M04 A3011 RMK A01 T00711042  RH  044%=      5-min Rain = 0
KSW1 240237Z 02009KT 07/M04 A3011 RMK A01 T00711042  RH  044%=      5-min Rain = 0
KSW1 240238Z 02009KT 07/M04 A3011 RMK A01 T00711042  RH  044%=      5-min Rain = 0
KSW1 240239Z 02009KT 07/M04 A3011 RMK A01 T00711041  RH  045%=      5-min Rain = 0
KSW1 240240Z 02009KT 07/M04 A3011 RMK A01 T00711042  RH  045%=      5-min Rain = 0
KSW1 240241Z 02009KT 07/M04 A3011 RMK A01 T00711041  RH  045%=      5-min Rain = 0
KSW1 240242Z 02009KT 07/M04 A3011 RMK A01 T00711041  RH  045%=      5-min Rain = 0
KSW1 240243Z 02009KT 07/M04 A3011 RMK A01 T00711041  RH  045%=      5-min Rain = 0
KSW1 240244Z 02009KT 07/M04 A3012 RMK A01 T00711040  RH  045%=      5-min Rain = 0
KSW1 240245Z 02009KT 07/M04 A3012 RMK A01 T00711039  RH  045%=      5-min Rain = 0
KSW1 240246Z 02008KT 07/M04 A3012 RMK A01 T00721039  RH  045%=      5-min Rain = 0
KSW1 240247Z 03008KT 07/M04 A3012 RMK A01 T00721038  RH  045%=      5-min Rain = 0
KSW1 240248Z 03008KT 07/M04 A3012 RMK A01 T00721038  RH  045%=      5-min Rain = 0
KSW1 240249Z 03008KT 07/M04 A3012 RMK A01 T00721038  RH  045%=      5-min Rain = 0
KSW1 240250Z 03008KT 07/M04 A3012 RMK A01 T00721038  RH  045%=      5-min Rain = 0
KSW1 240251Z 03007KT 07/M04 A3012 RMK A01 T00711038  RH  046%=      5-min Rain = 0
KSW1 240252Z 04007KT 07/M04 A3012 RMK A01 T00711038  RH  046%=      5-min Rain = 0
KSW1 240253Z 04007KT 07/M04 A3013 RMK A01 T00691038  RH  046%=      5-min Rain = 0
KSW1 240254Z 05007KT 07/M04 A3013 RMK A01 T00671039  RH  047%=      5-min Rain = 0
KSW1 240255Z 05007KT 07/M04 A3013 RMK A01 T00651040  RH  047%=      5-min Rain = 0
KSW1 240256Z 06007KT 06/M04 A3013 RMK A01 T00631041  RH  047%=      5-min Rain = 0
KSW1 240257Z 06007KT 06/M04 A3013 RMK A01 T00601041  RH  048%=      5-min Rain = 0
KSW1 240258Z 06007KT 06/M04 A3013 RMK A01 T00591041  RH  049%=      5-min Rain = 0
KSW1 240259Z 06008KT 06/M04 A3013 RMK A01 T00571041  RH  049%=      5-min Rain = 0
KSW1 240300Z 06008KT 06/M04 A3013 RMK A01 T00571040  RH  050%=      5-min Rain = 0
KSW1 240301Z 06008KT 06/M04 A3013 RMK A01 T00571040  RH  050%=      5-min Rain = 0
KSW1 240302Z 06008KT 06/M04 A3013 RMK A01 T00571040  RH  050%=      5-min Rain = 0
KSW1 240303Z 05008KT 06/M04 A3013 RMK A01 T00581039  RH  050%=      5-min Rain = 0
KSW1 240304Z 06008KT 06/M04 A3013 RMK A01 T00591037  RH  050%=      5-min Rain = 0
KSW1 240305Z 05008KT 06/M04 A3014 RMK A01 T00611035  RH  050%=      5-min Rain = 0
KSW1 240306Z 05007KT 06/M03 A3014 RMK A01 T00631034  RH  050%=      5-min Rain = 0
KSW1 240307Z 05007KT 06/M03 A3014 RMK A01 T00641034  RH  049%=      5-min Rain = 0
KSW1 240308Z 05007KT 07/M03 A3014 RMK A01 T00651034  RH  049%=      5-min Rain = 0
KSW1 240309Z 05008KT 07/M03 A3014 RMK A01 T00651034  RH  049%=      5-min Rain = 0
KSW1 240310Z 05008KT 07/M04 A3014 RMK A01 T00651035  RH  049%=      5-min Rain = 0
KSW1 240311Z 05008KT 07/M03 A3014 RMK A01 T00661034  RH  049%=      5-min Rain = 0
KSW1 240312Z 05007KT 07/M03 A3014 RMK A01 T00661034  RH  049%=      5-min Rain = 0
KSW1 240313Z 05008KT 07/M03 A3014 RMK A01 T00671034  RH  049%=      5-min Rain = 0
KSW1 240314Z 05009KT 07/M03 A3014 RMK A01 T00671034  RH  049%=      5-min Rain = 0
KSW1 240315Z 05009KT 07/M03 A3014 RMK A01 T00671033  RH  049%=      5-min Rain = 0
KSW1 240316Z 04008KT 07/M03 A3014 RMK A01 T00671033  RH  049%=      5-min Rain = 0
KSW1 240317Z 04008KT 07/M03 A3014 RMK A01 T00671033  RH  049%=      5-min Rain = 0
KSW1 240318Z 04009KT 07/M03 A3014 RMK A01 T00671032  RH  049%=      5-min Rain = 0
KSW1 240319Z 04008KT 07/M03 A3014 RMK A01 T00681032  RH  049%=      5-min Rain = 0
KSW1 240320Z 04008KT 07/M03 A3014 RMK A01 T00691032  RH  049%=      5-min Rain = 0
KSW1 240321Z 04009KT 07/M03 A3014 RMK A01 T00691032  RH  048%=      5-min Rain = 0
KSW1 240322Z 04008KT 07/M03 A3014 RMK A01 T00691032  RH  048%=      5-min Rain = 0
KSW1 240323Z 04009KT 07/M03 A3014 RMK A01 T00691032  RH  048%=      5-min Rain = 0
KSW1 240324Z 04008KT 07/M03 A3014 RMK A01 T00691032  RH  049%=      5-min Rain = 0
KSW1 240325Z 04008KT 07/M03 A3015 RMK A01 T00681032  RH  049%=      5-min Rain = 0
KSW1 240326Z 04008KT 07/M03 A3015 RMK A01 T00671032  RH  049%=      5-min Rain = 0
KSW1 240327Z 04009KT 07/M03 A3015 RMK A01 T00671032  RH  049%=      5-min Rain = 0
KSW1 240328Z 04009KT 07/M03 A3015 RMK A01 T00661032  RH  050%=      5-min Rain = 0
KSW1 240329Z 04008KT 07/M03 A3015 RMK A01 T00661032  RH  050%=      5-min Rain = 0
KSW1 240330Z 04009KT 07/M03 A3015 RMK A01 T00651032  RH  050%=      5-min Rain = 0
KSW1 240331Z 05009KT 07/M03 A3015 RMK A01 T00651031  RH  050%=      5-min Rain = 0
KSW1 240332Z 05009KT 07/M03 A3015 RMK A01 T00661031  RH  050%=      5-min Rain = 0
KSW1 240333Z 05009KT 07/M03 A3015 RMK A01 T00661031  RH  050%=      5-min Rain = 0
KSW1 240334Z 05009KT 07/M03 A3015 RMK A01 T00661030  RH  050%=      5-min Rain = 0
KSW1 240335Z 05009KT 07/M03 A3015 RMK A01 T00661031  RH  050%=      5-min Rain = 0
KSW1 240336Z 05009KT 07/M03 A3015 RMK A01 T00661031  RH  050%=      5-min Rain = 0
KSW1 240337Z 05009KT 07/M03 A3015 RMK A01 T00651031  RH  050%=      5-min Rain = 0
KSW1 240338Z 06009KT 06/M03 A3016 RMK A01 T00641031  RH  051%=      5-min Rain = 0
KSW1 240339Z 05009KT 06/M03 A3016 RMK A01 T00631031  RH  051%=      5-min Rain = 0
KSW1 240340Z 05009KT 06/M03 A3016 RMK A01 T00621031  RH  051%=      5-min Rain = 0
KSW1 240341Z 05009KT 06/M03 A3016 RMK A01 T00611031  RH  052%=      5-min Rain = 0
KSW1 240342Z 05009KT 06/M03 A3016 RMK A01 T00611031  RH  052%=      5-min Rain = 0
KSW1 240343Z 05009KT 06/M03 A3016 RMK A01 T00591031  RH  052%=      5-min Rain = 0
KSW1 240344Z 05009KT 06/M03 A3016 RMK A01 T00581031  RH  053%=      5-min Rain = 0
KSW1 240345Z 05009KT 06/M03 A3017 RMK A01 T00581031  RH  053%=      5-min Rain = 0
KSW1 240346Z 05009KT 06/M03 A3017 RMK A01 T00571031  RH  053%=      5-min Rain = 0
KSW1 240347Z 05009KT 06/M03 A3017 RMK A01 T00571031  RH  053%=      5-min Rain = 0
KSW1 240348Z 05009KT 06/M03 A3017 RMK A01 T00571031  RH  053%=      5-min Rain = 0
KSW1 240349Z 05009KT 06/M03 A3017 RMK A01 T00581030  RH  053%=      5-min Rain = 0
KSW1 240350Z 05009KT 06/M03 A3017 RMK A01 T00581030  RH  053%=      5-min Rain = 0
KSW1 240351Z 05009KT 06/M03 A3017 RMK A01 T00591030  RH  053%=      5-min Rain = 0
KSW1 240352Z 05009KT 06/M03 A3017 RMK A01 T00591030  RH  053%=      5-min Rain = 0
KSW1 240353Z 05010KT 06/M03 A3017 RMK A01 T00591030  RH  053%=      5-min Rain = 0
KSW1 240354Z 04009KT 06/M03 A3017 RMK A01 T00601030  RH  053%=      5-min Rain = 0
KSW1 240355Z 04009KT 06/M03 A3017 RMK A01 T00601030  RH  053%=      5-min Rain = 0
KSW1 240356Z 05011KT 06/M03 A3017 RMK A01 T00611030  RH  052%=      5-min Rain = 0
KSW1 240357Z 05009KT 06/M03 A3018 RMK A01 T00631029  RH  052%=      5-min Rain = 0
KSW1 240358Z 05008KT 06/M03 A3018 RMK A01 T00631029  RH  051%=      5-min Rain = 0
KSW1 240359Z 05009KT 06/M03 A3018 RMK A01 T00631029  RH  052%=      5-min Rain = 0
KSW1 240400Z 05009KT 06/M03 A3018 RMK A01 T00611030  RH  052%=      5-min Rain = 0
KSW1 240401Z 05009KT 06/M03 A3018 RMK A01 T00601030  RH  052%=      5-min Rain = 0
KSW1 240402Z 05009KT 06/M03 A3018 RMK A01 T00591030  RH  053%=      5-min Rain = 0
KSW1 240403Z 05009KT 06/M03 A3018 RMK A01 T00581030  RH  053%=      5-min Rain = 0
KSW1 240404Z 05009KT 06/M03 A3018 RMK A01 T00591029  RH  053%=      5-min Rain = 0
KSW1 240405Z 05009KT 06/M03 A3018 RMK A01 T00581029  RH  053%=      5-min Rain = 0
KSW1 240406Z 05009KT 06/M03 A3018 RMK A01 T00591029  RH  053%=      5-min Rain = 0
KSW1 240407Z 04009KT 06/M03 A3018 RMK A01 T00581029  RH  053%=      5-min Rain = 0
KSW1 240408Z 05009KT 06/M03 A3018 RMK A01 T00581029  RH  053%=      5-min Rain = 0
KSW1 240409Z 05009KT 06/M03 A3018 RMK A01 T00591029  RH  053%=      5-min Rain = 0
KSW1 240410Z 05009KT 06/M03 A3018 RMK A01 T00591029  RH  053%=      5-min Rain = 0
KSW1 240411Z 05009KT 06/M03 A3018 RMK A01 T00591029  RH  053%=      5-min Rain = 0
KSW1 240412Z 05009KT 06/M03 A3018 RMK A01 T00591029  RH  053%=      5-min Rain = 0
KSW1 240413Z 04009KT 06/M03 A3018 RMK A01 T00581029  RH  053%=      5-min Rain = 0
KSW1 240414Z 04008KT 06/M03 A3019 RMK A01 T00581029  RH  053%=      5-min Rain = 0
KSW1 240415Z 05008KT 06/M03 A3019 RMK A01 T00581030  RH  053%=      5-min Rain = 0
KSW1 240416Z 05007KT 06/M03 A3019 RMK A01 T00571030  RH  054%=      5-min Rain = 0
KSW1 240417Z 05009KT 06/M03 A3019 RMK A01 T00561030  RH  054%=      5-min Rain = 0
KSW1 240418Z 05009KT 06/M03 A3019 RMK A01 T00561030  RH  054%=      5-min Rain = 0
KSW1 240419Z 05008KT 06/M03 A3019 RMK A01 T00571029  RH  054%=      5-min Rain = 0
KSW1 240420Z 05008KT 06/M03 A3019 RMK A01 T00571029  RH  054%=      5-min Rain = 0
KSW1 240421Z 06008KT 06/M03 A3019 RMK A01 T00561030  RH  054%=      5-min Rain = 0
KSW1 240422Z 05008KT 06/M03 A3019 RMK A01 T00561030  RH  054%=      5-min Rain = 0
KSW1 240423Z 05008KT 06/M03 A3019 RMK A01 T00561030  RH  054%=      5-min Rain = 0
KSW1 240424Z 06008KT 06/M03 A302 RMK A01 T00551030  RH  054%=      5-min Rain = 0
KSW1 240425Z 05008KT 06/M03 A302 RMK A01 T00551030  RH  055%=      5-min Rain = 0
KSW1 240426Z 05008KT 05/M03 A302 RMK A01 T00541030  RH  055%=      5-min Rain = 0
KSW1 240427Z 06008KT 05/M03 A302 RMK A01 T00531030  RH  055%=      5-min Rain = 0
KSW1 240428Z 06008KT 05/M03 A302 RMK A01 T00531030  RH  055%=      5-min Rain = 0
KSW1 240429Z 06008KT 05/M03 A302 RMK A01 T00521030  RH  056%=      5-min Rain = 0
KSW1 240430Z 05008KT 05/M03 A302 RMK A01 T00521030  RH  056%=      5-min Rain = 0
KSW1 240431Z 05008KT 05/M03 A302 RMK A01 T00521029  RH  056%=      5-min Rain = 0
KSW1 240432Z 05008KT 05/M03 A302 RMK A01 T00511030  RH  056%=      5-min Rain = 0
KSW1 240433Z 05009KT 05/M03 A302 RMK A01 T00511030  RH  056%=      5-min Rain = 0
KSW1 240434Z 06009KT 05/M03 A302 RMK A01 T00511029  RH  056%=      5-min Rain = 0
KSW1 240435Z 05009KT 05/M03 A302 RMK A01 T00511029  RH  056%=      5-min Rain = 0
KSW1 240436Z 05008KT 05/M03 A302 RMK A01 T00511029  RH  056%=      5-min Rain = 0
KSW1 240437Z 05009KT 05/M03 A302 RMK A01 T00501029  RH  057%=      5-min Rain = 0
KSW1 240438Z 06009KT 05/M03 A302 RMK A01 T00501029  RH  057%=      5-min Rain = 0
KSW1 240439Z 06008KT 05/M03 A302 RMK A01 T00501029  RH  057%=      5-min Rain = 0
KSW1 240440Z 06008KT 05/M03 A302 RMK A01 T00501029  RH  057%=      5-min Rain = 0
KSW1 240441Z 06008KT 05/M03 A302 RMK A01 T00491030  RH  057%=      5-min Rain = 0
KSW1 240442Z 06008KT 05/M03 A302 RMK A01 T00491029  RH  057%=      5-min Rain = 0
KSW1 240443Z 06009KT 05/M03 A302 RMK A01 T00481029  RH  057%=      5-min Rain = 0
KSW1 240444Z 06009KT 05/M03 A302 RMK A01 T00471029  RH  058%=      5-min Rain = 0
KSW1 240445Z 05010KT 05/M03 A302 RMK A01 T00471029  RH  058%=      5-min Rain = 0
KSW1 240446Z 06010KT 05/M03 A302 RMK A01 T00481028  RH  058%=      5-min Rain = 0
KSW1 240447Z 05010KT 05/M03 A3021 RMK A01 T00491028  RH  058%=      5-min Rain = 0
KSW1 240448Z 06011KT 05/M03 A3021 RMK A01 T00491028  RH  057%=      5-min Rain = 0
KSW1 240449Z 06010KT 05/M03 A3021 RMK A01 T00501028  RH  057%=      5-min Rain = 0
KSW1 240450Z 06010KT 05/M03 A3021 RMK A01 T00511028  RH  057%=      5-min Rain = 0
KSW1 240451Z 05009KT 05/M03 A3021 RMK A01 T00511028  RH  057%=      5-min Rain = 0
KSW1 240452Z 05009KT 05/M03 A3021 RMK A01 T00511028  RH  056%=      5-min Rain = 0
KSW1 240453Z 05009KT 05/M03 A3021 RMK A01 T00511028  RH  056%=      5-min Rain = 0
KSW1 240454Z 05008KT 05/M03 A3021 RMK A01 T00511029  RH  057%=      5-min Rain = 0
KSW1 240455Z 05007KT 05/M03 A3021 RMK A01 T00511028  RH  056%=      5-min Rain = 0
KSW1 240456Z 05007KT 05/M03 A3021 RMK A01 T00521028  RH  056%=      5-min Rain = 0
KSW1 240457Z 05006KT 05/M03 A3021 RMK A01 T00521029  RH  056%=      5-min Rain = 0
KSW1 240458Z 05007KT 05/M03 A3021 RMK A01 T00511029  RH  056%=      5-min Rain = 0
KSW1 240459Z 05007KT 05/M03 A3021 RMK A01 T00511029  RH  056%=      5-min Rain = 0
KSW1 240500Z 05007KT 05/M03 A3021 RMK A01 T00501029  RH  056%=      5-min Rain = 0
KSW1 240501Z 05006KT 05/M03 A3021 RMK A01 T00501029  RH  057%=      5-min Rain = 0
KSW1 240502Z 05007KT 05/M03 A3021 RMK A01 T00491029  RH  057%=      5-min Rain = 0
KSW1 240503Z 05007KT 05/M03 A3021 RMK A01 T00491029  RH  057%=      5-min Rain = 0
KSW1 240504Z 05009KT 05/M03 A3021 RMK A01 T00481029  RH  058%=      5-min Rain = 0
KSW1 240505Z 05009KT 05/M03 A3021 RMK A01 T00471029  RH  058%=      5-min Rain = 0
KSW1 240506Z 05009KT 05/M03 A3021 RMK A01 T00481028  RH  058%=      5-min Rain = 0
KSW1 240507Z 05009KT 05/M03 A3021 RMK A01 T00481028  RH  058%=      5-min Rain = 0
KSW1 240508Z 05009KT 05/M03 A3021 RMK A01 T00481028  RH  058%=      5-min Rain = 0
KSW1 240509Z 06010KT 05/M03 A3021 RMK A01 T00481028  RH  058%=      5-min Rain = 0
KSW1 240510Z 06009KT 05/M03 A3021 RMK A01 T00481028  RH  058%=      5-min Rain = 0
KSW1 240511Z 06009KT 05/M03 A3021 RMK A01 T00471028  RH  058%=      5-min Rain = 0
KSW1 240512Z 06009KT 05/M03 A3021 RMK A01 T00471028  RH  058%=      5-min Rain = 0
KSW1 240513Z 06009KT 05/M03 A3021 RMK A01 T00461029  RH  059%=      5-min Rain = 0
KSW1 240514Z 06009KT 04/M03 A3021 RMK A01 T00441029  RH  059%=      5-min Rain = 0
KSW1 240515Z 06009KT 04/M03 A3021 RMK A01 T00431029  RH  059%=      5-min Rain = 0
KSW1 240516Z 06009KT 04/M03 A3021 RMK A01 T00421030  RH  060%=      5-min Rain = 0
KSW1 240517Z 06009KT 04/M03 A3021 RMK A01 T00411029  RH  060%=      5-min Rain = 0
KSW1 240518Z 06009KT 04/M03 A3021 RMK A01 T00411029  RH  060%=      5-min Rain = 0
KSW1 240519Z 06009KT 04/M03 A3021 RMK A01 T00401030  RH  060%=      5-min Rain = 0
KSW1 240520Z 06008KT 04/M03 A3021 RMK A01 T00401030  RH  061%=      5-min Rain = 0
KSW1 240521Z 06008KT 04/M03 A3021 RMK A01 T00391030  RH  061%=      5-min Rain = 0
KSW1 240522Z 06008KT 04/M03 A3021 RMK A01 T00381030  RH  061%=      5-min Rain = 0
KSW1 240523Z 06008KT 04/M03 A3021 RMK A01 T00381030  RH  061%=      5-min Rain = 0
KSW1 240524Z 06009KT 04/M03 A3021 RMK A01 T00371030  RH  062%=      5-min Rain = 0
KSW1 240525Z 06009KT 04/M03 A3021 RMK A01 T00361030  RH  062%=      5-min Rain = 0
KSW1 240526Z 06009KT 04/M03 A3021 RMK A01 T00361030  RH  062%=      5-min Rain = 0
KSW1 240527Z 06009KT 04/M03 A3021 RMK A01 T00361030  RH  062%=      5-min Rain = 0
KSW1 240528Z 06008KT 04/M03 A3021 RMK A01 T00351030  RH  062%=      5-min Rain = 0
KSW1 240529Z 06008KT 04/M03 A3021 RMK A01 T00351030  RH  062%=      5-min Rain = 0
KSW1 240530Z 06008KT 03/M03 A3021 RMK A01 T00341030  RH  062%=      5-min Rain = 0
KSW1 240531Z 05008KT 04/M03 A3021 RMK A01 T00351030  RH  062%=      5-min Rain = 0
KSW1 240532Z 06008KT 04/M03 A3021 RMK A01 T00351030  RH  062%=      5-min Rain = 0
KSW1 240533Z 05008KT 04/M03 A3021 RMK A01 T00351030  RH  062%=      5-min Rain = 0
KSW1 240534Z 06007KT 04/M03 A3021 RMK A01 T00361029  RH  062%=      5-min Rain = 0
KSW1 240535Z 05007KT 04/M03 A3021 RMK A01 T00371029  RH  062%=      5-min Rain = 0
KSW1 240536Z 05007KT 04/M03 A3021 RMK A01 T00371029  RH  062%=      5-min Rain = 0
KSW1 240537Z 05007KT 04/M03 A3021 RMK A01 T00381029  RH  062%=      5-min Rain = 0
KSW1 240538Z 05008KT 04/M03 A3022 RMK A01 T00381029  RH  062%=      5-min Rain = 0
KSW1 240539Z 05008KT 04/M03 A3022 RMK A01 T00381029  RH  061%=      5-min Rain = 0
KSW1 240540Z 05009KT 04/M03 A3022 RMK A01 T00391029  RH  061%=      5-min Rain = 0
KSW1 240541Z 05008KT 04/M03 A3022 RMK A01 T00401029  RH  061%=      5-min Rain = 0
KSW1 240542Z 05009KT 04/M03 A3022 RMK A01 T00401029  RH  061%=      5-min Rain = 0
KSW1 240543Z 05009KT 04/M03 A3022 RMK A01 T00401029  RH  061%=      5-min Rain = 0
KSW1 240544Z 05009KT 04/M03 A3022 RMK A01 T00391030  RH  061%=      5-min Rain = 0
KSW1 240545Z 05009KT 04/M03 A3022 RMK A01 T00391029  RH  061%=      5-min Rain = 0
KSW1 240546Z 05009KT 04/M03 A3022 RMK A01 T00391029  RH  061%=      5-min Rain = 0
KSW1 240547Z 04008KT 04/M03 A3022 RMK A01 T00401029  RH  061%=      5-min Rain = 0
KSW1 240548Z 04008KT 04/M03 A3022 RMK A01 T00401029  RH  061%=      5-min Rain = 0
KSW1 240549Z 04008KT 04/M03 A3022 RMK A01 T00401029  RH  061%=      5-min Rain = 0
KSW1 240550Z 04009KT 04/M03 A3022 RMK A01 T00401029  RH  061%=      5-min Rain = 0
KSW1 240551Z 04009KT 04/M03 A3022 RMK A01 T00401029  RH  061%=      5-min Rain = 0
KSW1 240552Z 04009KT 04/M03 A3022 RMK A01 T00401030  RH  061%=      5-min Rain = 0
KSW1 240553Z 04009KT 04/M03 A3022 RMK A01 T00391030  RH  061%=      5-min Rain = 0
KSW1 240554Z 04009KT 04/M03 A3022 RMK A01 T00391030  RH  061%=      5-min Rain = 0
KSW1 240555Z 04009KT 04/M03 A3022 RMK A01 T00381030  RH  061%=      5-min Rain = 0
KSW1 240556Z 04009KT 04/M03 A3022 RMK A01 T00381030  RH  061%=      5-min Rain = 0
KSW1 240557Z 04009KT 04/M03 A3022 RMK A01 T00361031  RH  061%=      5-min Rain = 0
KSW1 240558Z 04009KT 04/M03 A3022 RMK A01 T00361031  RH  062%=      5-min Rain = 0
KSW1 240559Z 04008KT 04/M03 A3022 RMK A01 T00351031  RH  062%=      5-min Rain = 0

Page generated in 0.0888 seconds.